<?xml version="1.0" encoding="UTF-8" standalone="no" ?>
<gpx xmlns="http://www.topografix.com/GPX/1/1" xmlns:xsi="http://www.w3.org/2001/XMLSchema-instance" xsi:schemaLocation="http://www.topografix.com/GPX/1/1 http://www.topografix.com/GPX/1/1/gpx.xsd" version="1.1" creator="VisuGPX - https://www.visugpx.com">
  <metadata>
    <name>Le Lac de Peyre (74 Chinaillon - Balafrasse)</name>
    <desc><![CDATA[Départ du Pont de Venay
Photos et commentaires sur : [url]http://www.photosrandos.fr[/url]

]]></desc>
  </metadata>
  <trk>
    <name><![CDATA[11 mars 2020 à 08:53:22]]></name>
    <cmt><![CDATA[11 mars 2020 à 08:53:22]]></cmt>
    <trkseg>
      <trkpt lat="45.9763" lon="6.46028">
        <ele>1305</ele>
        <time>2020-03-11T08:04:12Z</time>
      </trkpt>
      <trkpt lat="45.97636" lon="6.46034">
        <ele>1306</ele>
        <time>2020-03-11T08:04:22Z</time>
      </trkpt>
      <trkpt lat="45.97639" lon="6.46041">
        <ele>1307</ele>
        <time>2020-03-11T08:04:29Z</time>
      </trkpt>
      <trkpt lat="45.97642" lon="6.46045">
        <ele>1307</ele>
        <time>2020-03-11T08:04:34Z</time>
      </trkpt>
      <trkpt lat="45.97648" lon="6.4605">
        <ele>1307</ele>
        <time>2020-03-11T08:04:42Z</time>
      </trkpt>
      <trkpt lat="45.97653" lon="6.4605">
        <ele>1307</ele>
        <time>2020-03-11T08:04:47Z</time>
      </trkpt>
      <trkpt lat="45.97659" lon="6.46051">
        <ele>1307</ele>
        <time>2020-03-11T08:04:56Z</time>
      </trkpt>
      <trkpt lat="45.97666" lon="6.46051">
        <ele>1308</ele>
        <time>2020-03-11T08:05:08Z</time>
      </trkpt>
      <trkpt lat="45.9767" lon="6.46054">
        <ele>1312</ele>
        <time>2020-03-11T08:06:14Z</time>
      </trkpt>
      <trkpt lat="45.97691" lon="6.46067">
        <ele>1317</ele>
        <time>2020-03-11T08:06:50Z</time>
      </trkpt>
      <trkpt lat="45.97695" lon="6.4607">
        <ele>1317</ele>
        <time>2020-03-11T08:06:56Z</time>
      </trkpt>
      <trkpt lat="45.97701" lon="6.46081">
        <ele>1318</ele>
        <time>2020-03-11T08:07:07Z</time>
      </trkpt>
      <trkpt lat="45.97702" lon="6.46087">
        <ele>1319</ele>
        <time>2020-03-11T08:07:14Z</time>
      </trkpt>
      <trkpt lat="45.97701" lon="6.46094">
        <ele>1319</ele>
        <time>2020-03-11T08:07:18Z</time>
      </trkpt>
      <trkpt lat="45.97699" lon="6.46101">
        <ele>1319</ele>
        <time>2020-03-11T08:07:22Z</time>
      </trkpt>
      <trkpt lat="45.97692" lon="6.4612">
        <ele>1319</ele>
        <time>2020-03-11T08:07:36Z</time>
      </trkpt>
      <trkpt lat="45.97679" lon="6.46139">
        <ele>1319</ele>
        <time>2020-03-11T08:08:02Z</time>
      </trkpt>
      <trkpt lat="45.97677" lon="6.46149">
        <ele>1320</ele>
        <time>2020-03-11T08:08:14Z</time>
      </trkpt>
      <trkpt lat="45.97682" lon="6.46158">
        <ele>1320</ele>
        <time>2020-03-11T08:08:26Z</time>
      </trkpt>
      <trkpt lat="45.97688" lon="6.46164">
        <ele>1322</ele>
        <time>2020-03-11T08:08:38Z</time>
      </trkpt>
      <trkpt lat="45.97692" lon="6.46174">
        <ele>1323</ele>
        <time>2020-03-11T08:08:50Z</time>
      </trkpt>
      <trkpt lat="45.97697" lon="6.46175">
        <ele>1324</ele>
        <time>2020-03-11T08:09:02Z</time>
      </trkpt>
      <trkpt lat="45.97701" lon="6.46172">
        <ele>1325</ele>
        <time>2020-03-11T08:09:08Z</time>
      </trkpt>
      <trkpt lat="45.97707" lon="6.46174">
        <ele>1327</ele>
        <time>2020-03-11T08:09:20Z</time>
      </trkpt>
      <trkpt lat="45.9771" lon="6.46181">
        <ele>1329</ele>
        <time>2020-03-11T08:09:32Z</time>
      </trkpt>
      <trkpt lat="45.97714" lon="6.46189">
        <ele>1331</ele>
        <time>2020-03-11T08:09:44Z</time>
      </trkpt>
      <trkpt lat="45.97737" lon="6.46188">
        <ele>1335</ele>
        <time>2020-03-11T08:10:17Z</time>
      </trkpt>
      <trkpt lat="45.97744" lon="6.46188">
        <ele>1337</ele>
        <time>2020-03-11T08:10:29Z</time>
      </trkpt>
      <trkpt lat="45.97759" lon="6.46198">
        <ele>1340</ele>
        <time>2020-03-11T08:10:53Z</time>
      </trkpt>
      <trkpt lat="45.97785" lon="6.46203">
        <ele>1344</ele>
        <time>2020-03-11T08:11:29Z</time>
      </trkpt>
      <trkpt lat="45.97793" lon="6.46205">
        <ele>1345</ele>
        <time>2020-03-11T08:11:39Z</time>
      </trkpt>
      <trkpt lat="45.97805" lon="6.46206">
        <ele>1347</ele>
        <time>2020-03-11T08:11:58Z</time>
      </trkpt>
      <trkpt lat="45.97828" lon="6.46213">
        <ele>1351</ele>
        <time>2020-03-11T08:12:30Z</time>
      </trkpt>
      <trkpt lat="45.97846" lon="6.46229">
        <ele>1354</ele>
        <time>2020-03-11T08:13:01Z</time>
      </trkpt>
      <trkpt lat="45.97856" lon="6.46233">
        <ele>1355</ele>
        <time>2020-03-11T08:13:19Z</time>
      </trkpt>
      <trkpt lat="45.97862" lon="6.46246">
        <ele>1356</ele>
        <time>2020-03-11T08:14:44Z</time>
      </trkpt>
      <trkpt lat="45.97873" lon="6.46268">
        <ele>1361</ele>
        <time>2020-03-11T08:15:16Z</time>
      </trkpt>
      <trkpt lat="45.9788" lon="6.46281">
        <ele>1363</ele>
        <time>2020-03-11T08:15:34Z</time>
      </trkpt>
      <trkpt lat="45.97885" lon="6.46296">
        <ele>1365</ele>
        <time>2020-03-11T08:15:52Z</time>
      </trkpt>
      <trkpt lat="45.979" lon="6.46321">
        <ele>1369</ele>
        <time>2020-03-11T08:16:28Z</time>
      </trkpt>
      <trkpt lat="45.97921" lon="6.46337">
        <ele>1373</ele>
        <time>2020-03-11T08:17:04Z</time>
      </trkpt>
      <trkpt lat="45.97932" lon="6.46346">
        <ele>1374</ele>
        <time>2020-03-11T08:17:22Z</time>
      </trkpt>
      <trkpt lat="45.97954" lon="6.46359">
        <ele>1378</ele>
        <time>2020-03-11T08:17:58Z</time>
      </trkpt>
      <trkpt lat="45.97965" lon="6.46362">
        <ele>1380</ele>
        <time>2020-03-11T08:18:16Z</time>
      </trkpt>
      <trkpt lat="45.97973" lon="6.4637">
        <ele>1382</ele>
        <time>2020-03-11T08:18:34Z</time>
      </trkpt>
      <trkpt lat="45.97983" lon="6.46374">
        <ele>1385</ele>
        <time>2020-03-11T08:18:52Z</time>
      </trkpt>
      <trkpt lat="45.98001" lon="6.46385">
        <ele>1390</ele>
        <time>2020-03-11T08:19:28Z</time>
      </trkpt>
      <trkpt lat="45.98011" lon="6.46387">
        <ele>1391</ele>
        <time>2020-03-11T08:19:46Z</time>
      </trkpt>
      <trkpt lat="45.98022" lon="6.46387">
        <ele>1392</ele>
        <time>2020-03-11T08:20:04Z</time>
      </trkpt>
      <trkpt lat="45.98034" lon="6.46395">
        <ele>1392</ele>
        <time>2020-03-11T08:20:22Z</time>
      </trkpt>
      <trkpt lat="45.98058" lon="6.46396">
        <ele>1395</ele>
        <time>2020-03-11T08:20:58Z</time>
      </trkpt>
      <trkpt lat="45.98068" lon="6.46395">
        <ele>1395</ele>
        <time>2020-03-11T08:21:10Z</time>
      </trkpt>
      <trkpt lat="45.98079" lon="6.46394">
        <ele>1397</ele>
        <time>2020-03-11T08:21:28Z</time>
      </trkpt>
      <trkpt lat="45.9809" lon="6.46395">
        <ele>1399</ele>
        <time>2020-03-11T08:21:48Z</time>
      </trkpt>
      <trkpt lat="45.981" lon="6.46393">
        <ele>1400</ele>
        <time>2020-03-11T08:22:03Z</time>
      </trkpt>
      <trkpt lat="45.98111" lon="6.46392">
        <ele>1402</ele>
        <time>2020-03-11T08:22:19Z</time>
      </trkpt>
      <trkpt lat="45.98137" lon="6.46376">
        <ele>1402</ele>
        <time>2020-03-11T08:23:29Z</time>
      </trkpt>
      <trkpt lat="45.98146" lon="6.46372">
        <ele>1402</ele>
        <time>2020-03-11T08:23:38Z</time>
      </trkpt>
      <trkpt lat="45.98169" lon="6.46359">
        <ele>1402</ele>
        <time>2020-03-11T08:24:04Z</time>
      </trkpt>
      <trkpt lat="45.98178" lon="6.46349">
        <ele>1402</ele>
        <time>2020-03-11T08:24:16Z</time>
      </trkpt>
      <trkpt lat="45.98186" lon="6.46343">
        <ele>1403</ele>
        <time>2020-03-11T08:24:27Z</time>
      </trkpt>
      <trkpt lat="45.98197" lon="6.46339">
        <ele>1404</ele>
        <time>2020-03-11T08:25:09Z</time>
      </trkpt>
      <trkpt lat="45.98206" lon="6.46335">
        <ele>1404</ele>
        <time>2020-03-11T08:25:18Z</time>
      </trkpt>
      <trkpt lat="45.98216" lon="6.46326">
        <ele>1406</ele>
        <time>2020-03-11T08:25:33Z</time>
      </trkpt>
      <trkpt lat="45.98237" lon="6.46316">
        <ele>1410</ele>
        <time>2020-03-11T08:26:09Z</time>
      </trkpt>
      <trkpt lat="45.98249" lon="6.46319">
        <ele>1413</ele>
        <time>2020-03-11T08:26:27Z</time>
      </trkpt>
      <trkpt lat="45.98261" lon="6.46323">
        <ele>1414</ele>
        <time>2020-03-11T08:26:45Z</time>
      </trkpt>
      <trkpt lat="45.98271" lon="6.46314">
        <ele>1415</ele>
        <time>2020-03-11T08:27:03Z</time>
      </trkpt>
      <trkpt lat="45.98275" lon="6.46298">
        <ele>1416</ele>
        <time>2020-03-11T08:27:27Z</time>
      </trkpt>
      <trkpt lat="45.98286" lon="6.46297">
        <ele>1417</ele>
        <time>2020-03-11T08:27:51Z</time>
      </trkpt>
      <trkpt lat="45.98298" lon="6.46295">
        <ele>1420</ele>
        <time>2020-03-11T08:28:09Z</time>
      </trkpt>
      <trkpt lat="45.98319" lon="6.46296">
        <ele>1423</ele>
        <time>2020-03-11T08:28:44Z</time>
      </trkpt>
      <trkpt lat="45.98341" lon="6.46303">
        <ele>1423</ele>
        <time>2020-03-11T08:29:19Z</time>
      </trkpt>
      <trkpt lat="45.98364" lon="6.46305">
        <ele>1423</ele>
        <time>2020-03-11T08:29:48Z</time>
      </trkpt>
      <trkpt lat="45.98377" lon="6.46308">
        <ele>1423</ele>
        <time>2020-03-11T08:30:07Z</time>
      </trkpt>
      <trkpt lat="45.98389" lon="6.46306">
        <ele>1423</ele>
        <time>2020-03-11T08:30:25Z</time>
      </trkpt>
      <trkpt lat="45.98399" lon="6.46298">
        <ele>1423</ele>
        <time>2020-03-11T08:30:55Z</time>
      </trkpt>
      <trkpt lat="45.98406" lon="6.46291">
        <ele>1424</ele>
        <time>2020-03-11T08:31:07Z</time>
      </trkpt>
      <trkpt lat="45.98418" lon="6.46298">
        <ele>1425</ele>
        <time>2020-03-11T08:31:25Z</time>
      </trkpt>
      <trkpt lat="45.98426" lon="6.46304">
        <ele>1426</ele>
        <time>2020-03-11T08:35:13Z</time>
      </trkpt>
      <trkpt lat="45.98446" lon="6.46318">
        <ele>1428</ele>
        <time>2020-03-11T08:35:43Z</time>
      </trkpt>
      <trkpt lat="45.98457" lon="6.46324">
        <ele>1429</ele>
        <time>2020-03-11T08:35:58Z</time>
      </trkpt>
      <trkpt lat="45.98484" lon="6.4633">
        <ele>1431</ele>
        <time>2020-03-11T08:36:31Z</time>
      </trkpt>
      <trkpt lat="45.98507" lon="6.46336">
        <ele>1433</ele>
        <time>2020-03-11T08:37:07Z</time>
      </trkpt>
      <trkpt lat="45.98518" lon="6.46345">
        <ele>1434</ele>
        <time>2020-03-11T08:37:25Z</time>
      </trkpt>
      <trkpt lat="45.98528" lon="6.46349">
        <ele>1435</ele>
        <time>2020-03-11T08:37:43Z</time>
      </trkpt>
      <trkpt lat="45.98537" lon="6.46363">
        <ele>1436</ele>
        <time>2020-03-11T08:38:01Z</time>
      </trkpt>
      <trkpt lat="45.98554" lon="6.46381">
        <ele>1436</ele>
        <time>2020-03-11T08:38:28Z</time>
      </trkpt>
      <trkpt lat="45.98557" lon="6.46396">
        <ele>1438</ele>
        <time>2020-03-11T08:39:04Z</time>
      </trkpt>
      <trkpt lat="45.98566" lon="6.46407">
        <ele>1438</ele>
        <time>2020-03-11T08:40:58Z</time>
      </trkpt>
      <trkpt lat="45.98577" lon="6.46416">
        <ele>1439</ele>
        <time>2020-03-11T08:41:16Z</time>
      </trkpt>
      <trkpt lat="45.98587" lon="6.46425">
        <ele>1441</ele>
        <time>2020-03-11T08:41:34Z</time>
      </trkpt>
      <trkpt lat="45.98594" lon="6.46434">
        <ele>1439</ele>
        <time>2020-03-11T08:41:46Z</time>
      </trkpt>
      <trkpt lat="45.986" lon="6.4644">
        <ele>1439</ele>
        <time>2020-03-11T08:41:58Z</time>
      </trkpt>
      <trkpt lat="45.98607" lon="6.46447">
        <ele>1440</ele>
        <time>2020-03-11T08:42:10Z</time>
      </trkpt>
      <trkpt lat="45.98612" lon="6.46455">
        <ele>1441</ele>
        <time>2020-03-11T08:42:22Z</time>
      </trkpt>
      <trkpt lat="45.98612" lon="6.46467">
        <ele>1440</ele>
        <time>2020-03-11T08:42:34Z</time>
      </trkpt>
      <trkpt lat="45.98612" lon="6.46479">
        <ele>1439</ele>
        <time>2020-03-11T08:42:46Z</time>
      </trkpt>
      <trkpt lat="45.98615" lon="6.46488">
        <ele>1438</ele>
        <time>2020-03-11T08:42:58Z</time>
      </trkpt>
      <trkpt lat="45.98611" lon="6.46491">
        <ele>1437</ele>
        <time>2020-03-11T08:43:24Z</time>
      </trkpt>
      <trkpt lat="45.98613" lon="6.46507">
        <ele>1439</ele>
        <time>2020-03-11T08:43:44Z</time>
      </trkpt>
      <trkpt lat="45.98617" lon="6.46516">
        <ele>1440</ele>
        <time>2020-03-11T08:43:55Z</time>
      </trkpt>
      <trkpt lat="45.9862" lon="6.46527">
        <ele>1441</ele>
        <time>2020-03-11T08:44:07Z</time>
      </trkpt>
      <trkpt lat="45.98622" lon="6.46537">
        <ele>1441</ele>
        <time>2020-03-11T08:44:19Z</time>
      </trkpt>
      <trkpt lat="45.98627" lon="6.46538">
        <ele>1443</ele>
        <time>2020-03-11T08:44:31Z</time>
      </trkpt>
      <trkpt lat="45.98632" lon="6.46536">
        <ele>1443</ele>
        <time>2020-03-11T08:44:43Z</time>
      </trkpt>
      <trkpt lat="45.98648" lon="6.46552">
        <ele>1448</ele>
        <time>2020-03-11T08:45:19Z</time>
      </trkpt>
      <trkpt lat="45.98655" lon="6.46558">
        <ele>1448</ele>
        <time>2020-03-11T08:45:31Z</time>
      </trkpt>
      <trkpt lat="45.98669" lon="6.46583">
        <ele>1451</ele>
        <time>2020-03-11T08:46:07Z</time>
      </trkpt>
      <trkpt lat="45.9867" lon="6.46593">
        <ele>1451</ele>
        <time>2020-03-11T08:46:19Z</time>
      </trkpt>
      <trkpt lat="45.98679" lon="6.46611">
        <ele>1453</ele>
        <time>2020-03-11T08:46:43Z</time>
      </trkpt>
      <trkpt lat="45.98696" lon="6.46626">
        <ele>1456</ele>
        <time>2020-03-11T08:47:19Z</time>
      </trkpt>
      <trkpt lat="45.98704" lon="6.46642">
        <ele>1459</ele>
        <time>2020-03-11T08:47:43Z</time>
      </trkpt>
      <trkpt lat="45.98704" lon="6.46652">
        <ele>1460</ele>
        <time>2020-03-11T08:47:55Z</time>
      </trkpt>
      <trkpt lat="45.98711" lon="6.4668">
        <ele>1463</ele>
        <time>2020-03-11T08:48:49Z</time>
      </trkpt>
      <trkpt lat="45.98715" lon="6.46689">
        <ele>1464</ele>
        <time>2020-03-11T08:49:01Z</time>
      </trkpt>
      <trkpt lat="45.98719" lon="6.46694">
        <ele>1465</ele>
        <time>2020-03-11T08:50:23Z</time>
      </trkpt>
      <trkpt lat="45.98724" lon="6.467">
        <ele>1467</ele>
        <time>2020-03-11T08:50:38Z</time>
      </trkpt>
      <trkpt lat="45.98737" lon="6.46715">
        <ele>1471</ele>
        <time>2020-03-11T08:51:16Z</time>
      </trkpt>
      <trkpt lat="45.98747" lon="6.4672">
        <ele>1475</ele>
        <time>2020-03-11T08:51:46Z</time>
      </trkpt>
      <trkpt lat="45.98756" lon="6.46727">
        <ele>1479</ele>
        <time>2020-03-11T08:52:22Z</time>
      </trkpt>
      <trkpt lat="45.98763" lon="6.4674">
        <ele>1483</ele>
        <time>2020-03-11T08:52:46Z</time>
      </trkpt>
      <trkpt lat="45.98767" lon="6.46757">
        <ele>1486</ele>
        <time>2020-03-11T08:53:28Z</time>
      </trkpt>
      <trkpt lat="45.98771" lon="6.46765">
        <ele>1488</ele>
        <time>2020-03-11T08:53:40Z</time>
      </trkpt>
      <trkpt lat="45.98775" lon="6.46769">
        <ele>1489</ele>
        <time>2020-03-11T08:53:52Z</time>
      </trkpt>
      <trkpt lat="45.98785" lon="6.46775">
        <ele>1492</ele>
        <time>2020-03-11T08:54:16Z</time>
      </trkpt>
      <trkpt lat="45.98793" lon="6.46785">
        <ele>1495</ele>
        <time>2020-03-11T08:54:40Z</time>
      </trkpt>
      <trkpt lat="45.98806" lon="6.46802">
        <ele>1500</ele>
        <time>2020-03-11T08:55:22Z</time>
      </trkpt>
      <trkpt lat="45.98817" lon="6.4682">
        <ele>1504</ele>
        <time>2020-03-11T08:55:58Z</time>
      </trkpt>
      <trkpt lat="45.98832" lon="6.46829">
        <ele>1510</ele>
        <time>2020-03-11T08:56:40Z</time>
      </trkpt>
      <trkpt lat="45.98838" lon="6.46827">
        <ele>1512</ele>
        <time>2020-03-11T08:56:52Z</time>
      </trkpt>
      <trkpt lat="45.98844" lon="6.4683">
        <ele>1513</ele>
        <time>2020-03-11T08:57:04Z</time>
      </trkpt>
      <trkpt lat="45.9885" lon="6.46834">
        <ele>1515</ele>
        <time>2020-03-11T08:57:16Z</time>
      </trkpt>
      <trkpt lat="45.98871" lon="6.4685">
        <ele>1519</ele>
        <time>2020-03-11T08:57:57Z</time>
      </trkpt>
      <trkpt lat="45.98879" lon="6.46856">
        <ele>1521</ele>
        <time>2020-03-11T08:58:13Z</time>
      </trkpt>
      <trkpt lat="45.98894" lon="6.46878">
        <ele>1524</ele>
        <time>2020-03-11T08:58:55Z</time>
      </trkpt>
      <trkpt lat="45.98904" lon="6.46888">
        <ele>1525</ele>
        <time>2020-03-11T08:59:13Z</time>
      </trkpt>
      <trkpt lat="45.98925" lon="6.46907">
        <ele>1527</ele>
        <time>2020-03-11T08:59:49Z</time>
      </trkpt>
      <trkpt lat="45.98933" lon="6.46933">
        <ele>1531</ele>
        <time>2020-03-11T09:00:25Z</time>
      </trkpt>
      <trkpt lat="45.98941" lon="6.46941">
        <ele>1533</ele>
        <time>2020-03-11T09:00:43Z</time>
      </trkpt>
      <trkpt lat="45.98949" lon="6.46932">
        <ele>1537</ele>
        <time>2020-03-11T09:01:13Z</time>
      </trkpt>
      <trkpt lat="45.98955" lon="6.46948">
        <ele>1540</ele>
        <time>2020-03-11T09:01:43Z</time>
      </trkpt>
      <trkpt lat="45.9896" lon="6.46978">
        <ele>1543</ele>
        <time>2020-03-11T09:02:15Z</time>
      </trkpt>
      <trkpt lat="45.98968" lon="6.47007">
        <ele>1544</ele>
        <time>2020-03-11T09:02:47Z</time>
      </trkpt>
      <trkpt lat="45.98972" lon="6.47018">
        <ele>1547</ele>
        <time>2020-03-11T09:02:59Z</time>
      </trkpt>
      <trkpt lat="45.98971" lon="6.47026">
        <ele>1547</ele>
        <time>2020-03-11T09:03:29Z</time>
      </trkpt>
      <trkpt lat="45.98973" lon="6.47033">
        <ele>1548</ele>
        <time>2020-03-11T09:03:35Z</time>
      </trkpt>
      <trkpt lat="45.98984" lon="6.47065">
        <ele>1553</ele>
        <time>2020-03-11T09:04:11Z</time>
      </trkpt>
      <trkpt lat="45.9899" lon="6.47076">
        <ele>1553</ele>
        <time>2020-03-11T09:04:23Z</time>
      </trkpt>
      <trkpt lat="45.98993" lon="6.47081">
        <ele>1553</ele>
        <time>2020-03-11T09:04:29Z</time>
      </trkpt>
      <trkpt lat="45.98996" lon="6.47086">
        <ele>1553</ele>
        <time>2020-03-11T09:04:35Z</time>
      </trkpt>
      <trkpt lat="45.98999" lon="6.47097">
        <ele>1553</ele>
        <time>2020-03-11T09:04:45Z</time>
      </trkpt>
      <trkpt lat="45.99" lon="6.47107">
        <ele>1555</ele>
        <time>2020-03-11T09:04:55Z</time>
      </trkpt>
      <trkpt lat="45.99005" lon="6.47125">
        <ele>1555</ele>
        <time>2020-03-11T09:05:15Z</time>
      </trkpt>
      <trkpt lat="45.99009" lon="6.47135">
        <ele>1555</ele>
        <time>2020-03-11T09:05:32Z</time>
      </trkpt>
      <trkpt lat="45.99032" lon="6.47162">
        <ele>1557</ele>
        <time>2020-03-11T09:06:14Z</time>
      </trkpt>
      <trkpt lat="45.99037" lon="6.47179">
        <ele>1559</ele>
        <time>2020-03-11T09:06:38Z</time>
      </trkpt>
      <trkpt lat="45.99043" lon="6.4719">
        <ele>1563</ele>
        <time>2020-03-11T09:07:02Z</time>
      </trkpt>
      <trkpt lat="45.99055" lon="6.47212">
        <ele>1567</ele>
        <time>2020-03-11T09:07:38Z</time>
      </trkpt>
      <trkpt lat="45.99064" lon="6.47225">
        <ele>1569</ele>
        <time>2020-03-11T09:08:00Z</time>
      </trkpt>
      <trkpt lat="45.99068" lon="6.47231">
        <ele>1569</ele>
        <time>2020-03-11T09:08:10Z</time>
      </trkpt>
      <trkpt lat="45.99073" lon="6.47237">
        <ele>1569</ele>
        <time>2020-03-11T09:08:20Z</time>
      </trkpt>
      <trkpt lat="45.99082" lon="6.47253">
        <ele>1570</ele>
        <time>2020-03-11T09:08:38Z</time>
      </trkpt>
      <trkpt lat="45.99088" lon="6.47259">
        <ele>1570</ele>
        <time>2020-03-11T09:09:13Z</time>
      </trkpt>
      <trkpt lat="45.9909" lon="6.47268">
        <ele>1570</ele>
        <time>2020-03-11T09:09:21Z</time>
      </trkpt>
      <trkpt lat="45.99091" lon="6.47274">
        <ele>1570</ele>
        <time>2020-03-11T09:09:33Z</time>
      </trkpt>
      <trkpt lat="45.99095" lon="6.47306">
        <ele>1573</ele>
        <time>2020-03-11T09:10:04Z</time>
      </trkpt>
      <trkpt lat="45.99102" lon="6.47333">
        <ele>1575</ele>
        <time>2020-03-11T09:10:40Z</time>
      </trkpt>
      <trkpt lat="45.99105" lon="6.47338">
        <ele>1575</ele>
        <time>2020-03-11T09:10:46Z</time>
      </trkpt>
      <trkpt lat="45.99119" lon="6.47363">
        <ele>1580</ele>
        <time>2020-03-11T09:11:22Z</time>
      </trkpt>
      <trkpt lat="45.99124" lon="6.47368">
        <ele>1581</ele>
        <time>2020-03-11T09:11:34Z</time>
      </trkpt>
      <trkpt lat="45.99128" lon="6.47371">
        <ele>1582</ele>
        <time>2020-03-11T09:11:45Z</time>
      </trkpt>
      <trkpt lat="45.99132" lon="6.47376">
        <ele>1582</ele>
        <time>2020-03-11T09:11:52Z</time>
      </trkpt>
      <trkpt lat="45.99142" lon="6.47394">
        <ele>1583</ele>
        <time>2020-03-11T09:12:12Z</time>
      </trkpt>
      <trkpt lat="45.99156" lon="6.47418">
        <ele>1587</ele>
        <time>2020-03-11T09:12:53Z</time>
      </trkpt>
      <trkpt lat="45.99165" lon="6.47436">
        <ele>1590</ele>
        <time>2020-03-11T09:13:17Z</time>
      </trkpt>
      <trkpt lat="45.99171" lon="6.47451">
        <ele>1595</ele>
        <time>2020-03-11T09:13:47Z</time>
      </trkpt>
      <trkpt lat="45.9918" lon="6.47467">
        <ele>1597</ele>
        <time>2020-03-11T09:14:11Z</time>
      </trkpt>
      <trkpt lat="45.99183" lon="6.47483">
        <ele>1600</ele>
        <time>2020-03-11T09:14:35Z</time>
      </trkpt>
      <trkpt lat="45.99186" lon="6.47491">
        <ele>1602</ele>
        <time>2020-03-11T09:14:47Z</time>
      </trkpt>
      <trkpt lat="45.99202" lon="6.47504">
        <ele>1605</ele>
        <time>2020-03-11T09:15:23Z</time>
      </trkpt>
      <trkpt lat="45.99206" lon="6.47509">
        <ele>1606</ele>
        <time>2020-03-11T09:15:29Z</time>
      </trkpt>
      <trkpt lat="45.99221" lon="6.47544">
        <ele>1608</ele>
        <time>2020-03-11T09:16:05Z</time>
      </trkpt>
      <trkpt lat="45.99225" lon="6.47539">
        <ele>1609</ele>
        <time>2020-03-11T09:23:32Z</time>
      </trkpt>
      <trkpt lat="45.99228" lon="6.47528">
        <ele>1611</ele>
        <time>2020-03-11T09:23:44Z</time>
      </trkpt>
      <trkpt lat="45.99228" lon="6.47495">
        <ele>1615</ele>
        <time>2020-03-11T09:24:20Z</time>
      </trkpt>
      <trkpt lat="45.99227" lon="6.47486">
        <ele>1616</ele>
        <time>2020-03-11T09:24:32Z</time>
      </trkpt>
      <trkpt lat="45.99226" lon="6.47471">
        <ele>1619</ele>
        <time>2020-03-11T09:24:56Z</time>
      </trkpt>
      <trkpt lat="45.99226" lon="6.47463">
        <ele>1621</ele>
        <time>2020-03-11T09:25:08Z</time>
      </trkpt>
      <trkpt lat="45.99225" lon="6.47454">
        <ele>1622</ele>
        <time>2020-03-11T09:25:20Z</time>
      </trkpt>
      <trkpt lat="45.99223" lon="6.47443">
        <ele>1622</ele>
        <time>2020-03-11T09:25:32Z</time>
      </trkpt>
      <trkpt lat="45.99222" lon="6.47435">
        <ele>1623</ele>
        <time>2020-03-11T09:25:44Z</time>
      </trkpt>
      <trkpt lat="45.99222" lon="6.47429">
        <ele>1625</ele>
        <time>2020-03-11T09:26:02Z</time>
      </trkpt>
      <trkpt lat="45.9922" lon="6.47421">
        <ele>1627</ele>
        <time>2020-03-11T09:26:23Z</time>
      </trkpt>
      <trkpt lat="45.99218" lon="6.47413">
        <ele>1629</ele>
        <time>2020-03-11T09:26:38Z</time>
      </trkpt>
      <trkpt lat="45.99219" lon="6.47404">
        <ele>1631</ele>
        <time>2020-03-11T09:26:53Z</time>
      </trkpt>
      <trkpt lat="45.99219" lon="6.4738">
        <ele>1634</ele>
        <time>2020-03-11T09:27:29Z</time>
      </trkpt>
      <trkpt lat="45.9922" lon="6.47359">
        <ele>1640</ele>
        <time>2020-03-11T09:28:05Z</time>
      </trkpt>
      <trkpt lat="45.99222" lon="6.47342">
        <ele>1644</ele>
        <time>2020-03-11T09:28:41Z</time>
      </trkpt>
      <trkpt lat="45.99224" lon="6.47335">
        <ele>1646</ele>
        <time>2020-03-11T09:28:53Z</time>
      </trkpt>
      <trkpt lat="45.99229" lon="6.4733">
        <ele>1649</ele>
        <time>2020-03-11T09:29:11Z</time>
      </trkpt>
      <trkpt lat="45.99234" lon="6.4733">
        <ele>1652</ele>
        <time>2020-03-11T09:29:29Z</time>
      </trkpt>
      <trkpt lat="45.9924" lon="6.4733">
        <ele>1654</ele>
        <time>2020-03-11T09:29:47Z</time>
      </trkpt>
      <trkpt lat="45.99245" lon="6.47332">
        <ele>1656</ele>
        <time>2020-03-11T09:29:59Z</time>
      </trkpt>
      <trkpt lat="45.99255" lon="6.47337">
        <ele>1659</ele>
        <time>2020-03-11T09:30:23Z</time>
      </trkpt>
      <trkpt lat="45.99271" lon="6.47339">
        <ele>1665</ele>
        <time>2020-03-11T09:31:05Z</time>
      </trkpt>
      <trkpt lat="45.99282" lon="6.47339">
        <ele>1668</ele>
        <time>2020-03-11T09:31:29Z</time>
      </trkpt>
      <trkpt lat="45.99296" lon="6.47344">
        <ele>1673</ele>
        <time>2020-03-11T09:32:11Z</time>
      </trkpt>
      <trkpt lat="45.99301" lon="6.47346">
        <ele>1674</ele>
        <time>2020-03-11T09:32:23Z</time>
      </trkpt>
      <trkpt lat="45.99306" lon="6.47349">
        <ele>1676</ele>
        <time>2020-03-11T09:32:41Z</time>
      </trkpt>
      <trkpt lat="45.9931" lon="6.47354">
        <ele>1678</ele>
        <time>2020-03-11T09:32:53Z</time>
      </trkpt>
      <trkpt lat="45.99319" lon="6.47376">
        <ele>1684</ele>
        <time>2020-03-11T09:33:37Z</time>
      </trkpt>
      <trkpt lat="45.99325" lon="6.47386">
        <ele>1687</ele>
        <time>2020-03-11T09:34:08Z</time>
      </trkpt>
      <trkpt lat="45.99329" lon="6.47393">
        <ele>1690</ele>
        <time>2020-03-11T09:34:26Z</time>
      </trkpt>
      <trkpt lat="45.99334" lon="6.47397">
        <ele>1691</ele>
        <time>2020-03-11T09:34:38Z</time>
      </trkpt>
      <trkpt lat="45.99345" lon="6.47401">
        <ele>1695</ele>
        <time>2020-03-11T09:35:02Z</time>
      </trkpt>
      <trkpt lat="45.99356" lon="6.47401">
        <ele>1697</ele>
        <time>2020-03-11T09:35:26Z</time>
      </trkpt>
      <trkpt lat="45.9936" lon="6.47394">
        <ele>1699</ele>
        <time>2020-03-11T09:35:44Z</time>
      </trkpt>
      <trkpt lat="45.9936" lon="6.47387">
        <ele>1699</ele>
        <time>2020-03-11T09:36:02Z</time>
      </trkpt>
      <trkpt lat="45.99366" lon="6.47389">
        <ele>1702</ele>
        <time>2020-03-11T09:36:26Z</time>
      </trkpt>
      <trkpt lat="45.99372" lon="6.47388">
        <ele>1704</ele>
        <time>2020-03-11T09:36:38Z</time>
      </trkpt>
      <trkpt lat="45.99377" lon="6.47386">
        <ele>1705</ele>
        <time>2020-03-11T09:37:56Z</time>
      </trkpt>
      <trkpt lat="45.99381" lon="6.47394">
        <ele>1706</ele>
        <time>2020-03-11T09:38:20Z</time>
      </trkpt>
      <trkpt lat="45.99392" lon="6.47407">
        <ele>1707</ele>
        <time>2020-03-11T09:38:44Z</time>
      </trkpt>
      <trkpt lat="45.99406" lon="6.47417">
        <ele>1712</ele>
        <time>2020-03-11T09:39:26Z</time>
      </trkpt>
      <trkpt lat="45.99412" lon="6.47419">
        <ele>1713</ele>
        <time>2020-03-11T09:39:38Z</time>
      </trkpt>
      <trkpt lat="45.99423" lon="6.47419">
        <ele>1717</ele>
        <time>2020-03-11T09:40:08Z</time>
      </trkpt>
      <trkpt lat="45.99436" lon="6.47432">
        <ele>1720</ele>
        <time>2020-03-11T09:40:47Z</time>
      </trkpt>
      <trkpt lat="45.9945" lon="6.47443">
        <ele>1723</ele>
        <time>2020-03-11T09:41:23Z</time>
      </trkpt>
      <trkpt lat="45.99462" lon="6.47457">
        <ele>1727</ele>
        <time>2020-03-11T09:41:59Z</time>
      </trkpt>
      <trkpt lat="45.99466" lon="6.47461">
        <ele>1728</ele>
        <time>2020-03-11T09:42:11Z</time>
      </trkpt>
      <trkpt lat="45.99475" lon="6.47469">
        <ele>1732</ele>
        <time>2020-03-11T09:42:41Z</time>
      </trkpt>
      <trkpt lat="45.99482" lon="6.47468">
        <ele>1734</ele>
        <time>2020-03-11T09:42:59Z</time>
      </trkpt>
      <trkpt lat="45.99486" lon="6.4747">
        <ele>1736</ele>
        <time>2020-03-11T09:43:11Z</time>
      </trkpt>
      <trkpt lat="45.99489" lon="6.47477">
        <ele>1737</ele>
        <time>2020-03-11T09:43:23Z</time>
      </trkpt>
      <trkpt lat="45.99502" lon="6.47493">
        <ele>1742</ele>
        <time>2020-03-11T09:43:59Z</time>
      </trkpt>
      <trkpt lat="45.99506" lon="6.47499">
        <ele>1744</ele>
        <time>2020-03-11T09:44:11Z</time>
      </trkpt>
      <trkpt lat="45.99514" lon="6.47512">
        <ele>1745</ele>
        <time>2020-03-11T09:44:35Z</time>
      </trkpt>
      <trkpt lat="45.99527" lon="6.4752">
        <ele>1746</ele>
        <time>2020-03-11T09:44:59Z</time>
      </trkpt>
      <trkpt lat="45.99532" lon="6.47528">
        <ele>1746</ele>
        <time>2020-03-11T09:45:23Z</time>
      </trkpt>
      <trkpt lat="45.99539" lon="6.47534">
        <ele>1746</ele>
        <time>2020-03-11T09:45:35Z</time>
      </trkpt>
      <trkpt lat="45.9957" lon="6.47552">
        <ele>1740</ele>
        <time>2020-03-11T09:45:58Z</time>
      </trkpt>
      <trkpt lat="45.99576" lon="6.47555">
        <ele>1739</ele>
        <time>2020-03-11T09:46:18Z</time>
      </trkpt>
      <trkpt lat="45.99585" lon="6.47563">
        <ele>1739</ele>
        <time>2020-03-11T09:46:28Z</time>
      </trkpt>
      <trkpt lat="45.9959" lon="6.47567">
        <ele>1739</ele>
        <time>2020-03-11T09:46:36Z</time>
      </trkpt>
      <trkpt lat="45.99595" lon="6.47558">
        <ele>1738</ele>
        <time>2020-03-11T09:46:52Z</time>
      </trkpt>
      <trkpt lat="45.996" lon="6.47553">
        <ele>1737</ele>
        <time>2020-03-11T09:46:58Z</time>
      </trkpt>
      <trkpt lat="45.99609" lon="6.47551">
        <ele>1735</ele>
        <time>2020-03-11T09:47:00Z</time>
      </trkpt>
      <trkpt lat="45.9962" lon="6.47562">
        <ele>1732</ele>
        <time>2020-03-11T09:47:04Z</time>
      </trkpt>
      <trkpt lat="45.99627" lon="6.47573">
        <ele>1731</ele>
        <time>2020-03-11T09:47:13Z</time>
      </trkpt>
      <trkpt lat="45.99629" lon="6.47581">
        <ele>1731</ele>
        <time>2020-03-11T09:47:20Z</time>
      </trkpt>
      <trkpt lat="45.99639" lon="6.47608">
        <ele>1731</ele>
        <time>2020-03-11T09:47:51Z</time>
      </trkpt>
      <trkpt lat="45.9965" lon="6.47618">
        <ele>1732</ele>
        <time>2020-03-11T09:48:11Z</time>
      </trkpt>
      <trkpt lat="45.99657" lon="6.47625">
        <ele>1732</ele>
        <time>2020-03-11T09:48:21Z</time>
      </trkpt>
      <trkpt lat="45.99669" lon="6.47633">
        <ele>1733</ele>
        <time>2020-03-11T09:48:44Z</time>
      </trkpt>
      <trkpt lat="45.99685" lon="6.47649">
        <ele>1736</ele>
        <time>2020-03-11T09:49:20Z</time>
      </trkpt>
      <trkpt lat="45.9969" lon="6.47654">
        <ele>1737</ele>
        <time>2020-03-11T09:49:32Z</time>
      </trkpt>
      <trkpt lat="45.99694" lon="6.47649">
        <ele>1740</ele>
        <time>2020-03-11T09:49:53Z</time>
      </trkpt>
      <trkpt lat="45.99698" lon="6.47648">
        <ele>1741</ele>
        <time>2020-03-11T09:50:05Z</time>
      </trkpt>
      <trkpt lat="45.99716" lon="6.47665">
        <ele>1745</ele>
        <time>2020-03-11T09:50:41Z</time>
      </trkpt>
      <trkpt lat="45.9972" lon="6.47669">
        <ele>1745</ele>
        <time>2020-03-11T09:50:47Z</time>
      </trkpt>
      <trkpt lat="45.99724" lon="6.47673">
        <ele>1745</ele>
        <time>2020-03-11T09:50:53Z</time>
      </trkpt>
      <trkpt lat="45.9973" lon="6.47671">
        <ele>1746</ele>
        <time>2020-03-11T09:51:19Z</time>
      </trkpt>
      <trkpt lat="45.99736" lon="6.47659">
        <ele>1748</ele>
        <time>2020-03-11T09:51:37Z</time>
      </trkpt>
      <trkpt lat="45.99747" lon="6.47648">
        <ele>1752</ele>
        <time>2020-03-11T09:52:01Z</time>
      </trkpt>
      <trkpt lat="45.99752" lon="6.47647">
        <ele>1754</ele>
        <time>2020-03-11T09:52:15Z</time>
      </trkpt>
      <trkpt lat="45.99773" lon="6.47632">
        <ele>1756</ele>
        <time>2020-03-11T09:53:51Z</time>
      </trkpt>
      <trkpt lat="45.99788" lon="6.47621">
        <ele>1759</ele>
        <time>2020-03-11T09:54:16Z</time>
      </trkpt>
      <trkpt lat="45.99802" lon="6.47625">
        <ele>1760</ele>
        <time>2020-03-11T09:54:34Z</time>
      </trkpt>
      <trkpt lat="45.99814" lon="6.47624">
        <ele>1763</ele>
        <time>2020-03-11T09:55:03Z</time>
      </trkpt>
      <trkpt lat="45.99819" lon="6.47627">
        <ele>1764</ele>
        <time>2020-03-11T09:55:13Z</time>
      </trkpt>
      <trkpt lat="45.99823" lon="6.47632">
        <ele>1765</ele>
        <time>2020-03-11T09:55:23Z</time>
      </trkpt>
      <trkpt lat="45.99827" lon="6.47638">
        <ele>1767</ele>
        <time>2020-03-11T09:55:44Z</time>
      </trkpt>
      <trkpt lat="45.99832" lon="6.47644">
        <ele>1769</ele>
        <time>2020-03-11T09:55:56Z</time>
      </trkpt>
      <trkpt lat="45.99836" lon="6.47646">
        <ele>1771</ele>
        <time>2020-03-11T09:56:06Z</time>
      </trkpt>
      <trkpt lat="45.99845" lon="6.47655">
        <ele>1775</ele>
        <time>2020-03-11T09:56:39Z</time>
      </trkpt>
      <trkpt lat="45.99849" lon="6.47662">
        <ele>1776</ele>
        <time>2020-03-11T09:56:57Z</time>
      </trkpt>
      <trkpt lat="45.99851" lon="6.47668">
        <ele>1778</ele>
        <time>2020-03-11T09:57:15Z</time>
      </trkpt>
      <trkpt lat="45.99855" lon="6.47672">
        <ele>1780</ele>
        <time>2020-03-11T09:57:33Z</time>
      </trkpt>
      <trkpt lat="45.99862" lon="6.47674">
        <ele>1781</ele>
        <time>2020-03-11T09:57:51Z</time>
      </trkpt>
      <trkpt lat="45.99864" lon="6.47665">
        <ele>1784</ele>
        <time>2020-03-11T09:58:09Z</time>
      </trkpt>
      <trkpt lat="45.99867" lon="6.47649">
        <ele>1789</ele>
        <time>2020-03-11T09:58:45Z</time>
      </trkpt>
      <trkpt lat="45.99867" lon="6.47631">
        <ele>1793</ele>
        <time>2020-03-11T09:59:21Z</time>
      </trkpt>
      <trkpt lat="45.99869" lon="6.47623">
        <ele>1795</ele>
        <time>2020-03-11T09:59:39Z</time>
      </trkpt>
      <trkpt lat="45.99868" lon="6.47598">
        <ele>1800</ele>
        <time>2020-03-11T10:00:27Z</time>
      </trkpt>
      <trkpt lat="45.99866" lon="6.4759">
        <ele>1803</ele>
        <time>2020-03-11T10:00:45Z</time>
      </trkpt>
      <trkpt lat="45.99864" lon="6.47581">
        <ele>1804</ele>
        <time>2020-03-11T10:01:03Z</time>
      </trkpt>
      <trkpt lat="45.99864" lon="6.4757">
        <ele>1806</ele>
        <time>2020-03-11T10:01:21Z</time>
      </trkpt>
      <trkpt lat="45.99859" lon="6.47564">
        <ele>1808</ele>
        <time>2020-03-11T10:01:39Z</time>
      </trkpt>
      <trkpt lat="45.99849" lon="6.4756">
        <ele>1812</ele>
        <time>2020-03-11T10:02:09Z</time>
      </trkpt>
      <trkpt lat="45.99839" lon="6.47556">
        <ele>1815</ele>
        <time>2020-03-11T10:02:40Z</time>
      </trkpt>
      <trkpt lat="45.99834" lon="6.4755">
        <ele>1817</ele>
        <time>2020-03-11T10:02:55Z</time>
      </trkpt>
      <trkpt lat="45.99838" lon="6.47543">
        <ele>1818</ele>
        <time>2020-03-11T10:04:12Z</time>
      </trkpt>
      <trkpt lat="45.99842" lon="6.47534">
        <ele>1820</ele>
        <time>2020-03-11T10:04:25Z</time>
      </trkpt>
      <trkpt lat="45.99855" lon="6.47519">
        <ele>1823</ele>
        <time>2020-03-11T10:04:53Z</time>
      </trkpt>
      <trkpt lat="45.99866" lon="6.47509">
        <ele>1826</ele>
        <time>2020-03-11T10:05:19Z</time>
      </trkpt>
      <trkpt lat="45.99872" lon="6.47502">
        <ele>1827</ele>
        <time>2020-03-11T10:05:31Z</time>
      </trkpt>
      <trkpt lat="45.99874" lon="6.47493">
        <ele>1829</ele>
        <time>2020-03-11T10:05:43Z</time>
      </trkpt>
      <trkpt lat="45.99881" lon="6.47494">
        <ele>1834</ele>
        <time>2020-03-11T10:06:31Z</time>
      </trkpt>
      <trkpt lat="45.99885" lon="6.47495">
        <ele>1835</ele>
        <time>2020-03-11T10:06:43Z</time>
      </trkpt>
      <trkpt lat="45.99891" lon="6.47494">
        <ele>1837</ele>
        <time>2020-03-11T10:07:01Z</time>
      </trkpt>
      <trkpt lat="45.99896" lon="6.47495">
        <ele>1839</ele>
        <time>2020-03-11T10:07:19Z</time>
      </trkpt>
      <trkpt lat="45.99901" lon="6.47495">
        <ele>1840</ele>
        <time>2020-03-11T10:07:37Z</time>
      </trkpt>
      <trkpt lat="45.99906" lon="6.47495">
        <ele>1841</ele>
        <time>2020-03-11T10:07:49Z</time>
      </trkpt>
      <trkpt lat="45.99914" lon="6.47501">
        <ele>1843</ele>
        <time>2020-03-11T10:08:08Z</time>
      </trkpt>
      <trkpt lat="45.99933" lon="6.47501">
        <ele>1848</ele>
        <time>2020-03-11T10:09:02Z</time>
      </trkpt>
      <trkpt lat="45.99937" lon="6.47504">
        <ele>1850</ele>
        <time>2020-03-11T10:09:14Z</time>
      </trkpt>
      <trkpt lat="45.99944" lon="6.47521">
        <ele>1855</ele>
        <time>2020-03-11T10:09:50Z</time>
      </trkpt>
      <trkpt lat="45.99949" lon="6.47521">
        <ele>1858</ele>
        <time>2020-03-11T10:10:38Z</time>
      </trkpt>
      <trkpt lat="45.99954" lon="6.47514">
        <ele>1860</ele>
        <time>2020-03-11T10:11:02Z</time>
      </trkpt>
      <trkpt lat="45.99957" lon="6.47505">
        <ele>1862</ele>
        <time>2020-03-11T10:11:13Z</time>
      </trkpt>
      <trkpt lat="45.99957" lon="6.47492">
        <ele>1867</ele>
        <time>2020-03-11T10:11:43Z</time>
      </trkpt>
      <trkpt lat="45.99958" lon="6.47472">
        <ele>1871</ele>
        <time>2020-03-11T10:12:12Z</time>
      </trkpt>
      <trkpt lat="45.99953" lon="6.47453">
        <ele>1876</ele>
        <time>2020-03-11T10:13:00Z</time>
      </trkpt>
      <trkpt lat="45.99953" lon="6.47446">
        <ele>1877</ele>
        <time>2020-03-11T10:13:12Z</time>
      </trkpt>
      <trkpt lat="45.99954" lon="6.47446">
        <ele>1882</ele>
        <time>2020-03-11T10:14:12Z</time>
      </trkpt>
      <trkpt lat="45.99965" lon="6.47456">
        <ele>1886</ele>
        <time>2020-03-11T10:14:48Z</time>
      </trkpt>
      <trkpt lat="45.99971" lon="6.47456">
        <ele>1889</ele>
        <time>2020-03-11T10:15:06Z</time>
      </trkpt>
      <trkpt lat="45.99976" lon="6.47458">
        <ele>1891</ele>
        <time>2020-03-11T10:15:24Z</time>
      </trkpt>
      <trkpt lat="45.99981" lon="6.47461">
        <ele>1893</ele>
        <time>2020-03-11T10:15:42Z</time>
      </trkpt>
      <trkpt lat="45.99984" lon="6.47468">
        <ele>1894</ele>
        <time>2020-03-11T10:15:54Z</time>
      </trkpt>
      <trkpt lat="45.9999" lon="6.4747">
        <ele>1895</ele>
        <time>2020-03-11T10:16:06Z</time>
      </trkpt>
      <trkpt lat="45.99996" lon="6.47475">
        <ele>1896</ele>
        <time>2020-03-11T10:16:37Z</time>
      </trkpt>
      <trkpt lat="46.00002" lon="6.47478">
        <ele>1898</ele>
        <time>2020-03-11T10:17:00Z</time>
      </trkpt>
      <trkpt lat="46.00007" lon="6.47487">
        <ele>1900</ele>
        <time>2020-03-11T10:17:23Z</time>
      </trkpt>
      <trkpt lat="46.00009" lon="6.475">
        <ele>1902</ele>
        <time>2020-03-11T10:17:38Z</time>
      </trkpt>
      <trkpt lat="46.00016" lon="6.47512">
        <ele>1905</ele>
        <time>2020-03-11T10:18:02Z</time>
      </trkpt>
      <trkpt lat="46.00023" lon="6.47535">
        <ele>1910</ele>
        <time>2020-03-11T10:18:44Z</time>
      </trkpt>
      <trkpt lat="46.00026" lon="6.47542">
        <ele>1912</ele>
        <time>2020-03-11T10:18:59Z</time>
      </trkpt>
      <trkpt lat="46.00031" lon="6.47543">
        <ele>1915</ele>
        <time>2020-03-11T10:19:17Z</time>
      </trkpt>
      <trkpt lat="46.00035" lon="6.47536">
        <ele>1917</ele>
        <time>2020-03-11T10:23:59Z</time>
      </trkpt>
      <trkpt lat="46.00044" lon="6.47527">
        <ele>1921</ele>
        <time>2020-03-11T10:24:35Z</time>
      </trkpt>
      <trkpt lat="46.0005" lon="6.47527">
        <ele>1925</ele>
        <time>2020-03-11T10:25:11Z</time>
      </trkpt>
      <trkpt lat="46.00051" lon="6.47534">
        <ele>1927</ele>
        <time>2020-03-11T10:25:29Z</time>
      </trkpt>
      <trkpt lat="46.00059" lon="6.47542">
        <ele>1933</ele>
        <time>2020-03-11T10:26:00Z</time>
      </trkpt>
      <trkpt lat="46.00062" lon="6.4755">
        <ele>1935</ele>
        <time>2020-03-11T10:26:20Z</time>
      </trkpt>
      <trkpt lat="46.0007" lon="6.47561">
        <ele>1939</ele>
        <time>2020-03-11T10:26:48Z</time>
      </trkpt>
      <trkpt lat="46.00074" lon="6.47556">
        <ele>1940</ele>
        <time>2020-03-11T10:26:58Z</time>
      </trkpt>
      <trkpt lat="46.00076" lon="6.4755">
        <ele>1941</ele>
        <time>2020-03-11T10:27:08Z</time>
      </trkpt>
      <trkpt lat="46.00079" lon="6.47544">
        <ele>1942</ele>
        <time>2020-03-11T10:27:18Z</time>
      </trkpt>
      <trkpt lat="46.00081" lon="6.47535">
        <ele>1942</ele>
        <time>2020-03-11T10:27:29Z</time>
      </trkpt>
      <trkpt lat="46.00083" lon="6.4752">
        <ele>1946</ele>
        <time>2020-03-11T10:27:53Z</time>
      </trkpt>
      <trkpt lat="46.00091" lon="6.47534">
        <ele>1948</ele>
        <time>2020-03-11T10:28:17Z</time>
      </trkpt>
      <trkpt lat="46.00092" lon="6.47542">
        <ele>1949</ele>
        <time>2020-03-11T10:28:29Z</time>
      </trkpt>
      <trkpt lat="46.00096" lon="6.47534">
        <ele>1951</ele>
        <time>2020-03-11T10:28:47Z</time>
      </trkpt>
      <trkpt lat="46.00098" lon="6.47521">
        <ele>1952</ele>
        <time>2020-03-11T10:28:59Z</time>
      </trkpt>
      <trkpt lat="46.00098" lon="6.47494">
        <ele>1957</ele>
        <time>2020-03-11T10:29:39Z</time>
      </trkpt>
      <trkpt lat="46.001" lon="6.47488">
        <ele>1958</ele>
        <time>2020-03-11T10:29:57Z</time>
      </trkpt>
      <trkpt lat="46.001" lon="6.47477">
        <ele>1959</ele>
        <time>2020-03-11T10:30:09Z</time>
      </trkpt>
      <trkpt lat="46.00103" lon="6.47472">
        <ele>1962</ele>
        <time>2020-03-11T10:30:33Z</time>
      </trkpt>
      <trkpt lat="46.00107" lon="6.47476">
        <ele>1964</ele>
        <time>2020-03-11T10:30:57Z</time>
      </trkpt>
      <trkpt lat="46.0011" lon="6.47481">
        <ele>1964</ele>
        <time>2020-03-11T10:31:03Z</time>
      </trkpt>
      <trkpt lat="46.00115" lon="6.47485">
        <ele>1966</ele>
        <time>2020-03-11T10:31:20Z</time>
      </trkpt>
      <trkpt lat="46.00115" lon="6.47478">
        <ele>1968</ele>
        <time>2020-03-11T10:31:34Z</time>
      </trkpt>
      <trkpt lat="46.00112" lon="6.47457">
        <ele>1970</ele>
        <time>2020-03-11T10:31:58Z</time>
      </trkpt>
      <trkpt lat="46.0012" lon="6.47457">
        <ele>1971</ele>
        <time>2020-03-11T10:32:45Z</time>
      </trkpt>
      <trkpt lat="46.00124" lon="6.47462">
        <ele>1972</ele>
        <time>2020-03-11T10:32:58Z</time>
      </trkpt>
      <trkpt lat="46.00128" lon="6.47453">
        <ele>1976</ele>
        <time>2020-03-11T10:33:34Z</time>
      </trkpt>
      <trkpt lat="46.00125" lon="6.47446">
        <ele>1977</ele>
        <time>2020-03-11T10:33:51Z</time>
      </trkpt>
      <trkpt lat="46.00124" lon="6.47436">
        <ele>1978</ele>
        <time>2020-03-11T10:34:37Z</time>
      </trkpt>
      <trkpt lat="46.00122" lon="6.47428">
        <ele>1981</ele>
        <time>2020-03-11T10:35:01Z</time>
      </trkpt>
      <trkpt lat="46.00124" lon="6.47415">
        <ele>1984</ele>
        <time>2020-03-11T10:35:31Z</time>
      </trkpt>
      <trkpt lat="46.00123" lon="6.47405">
        <ele>1987</ele>
        <time>2020-03-11T10:36:18Z</time>
      </trkpt>
      <trkpt lat="46.00126" lon="6.47399">
        <ele>1988</ele>
        <time>2020-03-11T10:36:25Z</time>
      </trkpt>
      <trkpt lat="46.00127" lon="6.47391">
        <ele>1989</ele>
        <time>2020-03-11T10:36:37Z</time>
      </trkpt>
      <trkpt lat="46.00131" lon="6.47385">
        <ele>1991</ele>
        <time>2020-03-11T10:36:50Z</time>
      </trkpt>
      <trkpt lat="46.00129" lon="6.47377">
        <ele>1995</ele>
        <time>2020-03-11T10:38:08Z</time>
      </trkpt>
      <trkpt lat="46.00132" lon="6.47371">
        <ele>1996</ele>
        <time>2020-03-11T10:38:18Z</time>
      </trkpt>
      <trkpt lat="46.00136" lon="6.47368">
        <ele>1998</ele>
        <time>2020-03-11T10:38:37Z</time>
      </trkpt>
      <trkpt lat="46.00141" lon="6.47369">
        <ele>2000</ele>
        <time>2020-03-11T10:39:01Z</time>
      </trkpt>
      <trkpt lat="46.00146" lon="6.47372">
        <ele>2001</ele>
        <time>2020-03-11T10:39:13Z</time>
      </trkpt>
      <trkpt lat="46.00152" lon="6.47377">
        <ele>2002</ele>
        <time>2020-03-11T10:39:31Z</time>
      </trkpt>
      <trkpt lat="46.00159" lon="6.47379">
        <ele>2003</ele>
        <time>2020-03-11T10:39:45Z</time>
      </trkpt>
      <trkpt lat="46.00164" lon="6.47385">
        <ele>2004</ele>
        <time>2020-03-11T10:40:03Z</time>
      </trkpt>
      <trkpt lat="46.00169" lon="6.47388">
        <ele>2005</ele>
        <time>2020-03-11T10:40:15Z</time>
      </trkpt>
      <trkpt lat="46.00177" lon="6.4739">
        <ele>2005</ele>
        <time>2020-03-11T10:40:28Z</time>
      </trkpt>
      <trkpt lat="46.00182" lon="6.47389">
        <ele>2007</ele>
        <time>2020-03-11T10:40:40Z</time>
      </trkpt>
      <trkpt lat="46.00185" lon="6.47385">
        <ele>2009</ele>
        <time>2020-03-11T10:41:04Z</time>
      </trkpt>
      <trkpt lat="46.00174" lon="6.47365">
        <ele>2011</ele>
        <time>2020-03-11T10:41:39Z</time>
      </trkpt>
      <trkpt lat="46.00171" lon="6.4736">
        <ele>2013</ele>
        <time>2020-03-11T10:41:54Z</time>
      </trkpt>
      <trkpt lat="46.00168" lon="6.47351">
        <ele>2014</ele>
        <time>2020-03-11T10:42:06Z</time>
      </trkpt>
      <trkpt lat="46.00165" lon="6.47344">
        <ele>2016</ele>
        <time>2020-03-11T10:42:24Z</time>
      </trkpt>
      <trkpt lat="46.00167" lon="6.47334">
        <ele>2018</ele>
        <time>2020-03-11T10:43:24Z</time>
      </trkpt>
      <trkpt lat="46.00167" lon="6.47327">
        <ele>2019</ele>
        <time>2020-03-11T10:43:35Z</time>
      </trkpt>
      <trkpt lat="46.00171" lon="6.47319">
        <ele>2022</ele>
        <time>2020-03-11T10:43:54Z</time>
      </trkpt>
      <trkpt lat="46.00175" lon="6.47307">
        <ele>2024</ele>
        <time>2020-03-11T10:45:25Z</time>
      </trkpt>
      <trkpt lat="46.00185" lon="6.47314">
        <ele>2027</ele>
        <time>2020-03-11T10:45:55Z</time>
      </trkpt>
      <trkpt lat="46.00198" lon="6.4732">
        <ele>2032</ele>
        <time>2020-03-11T10:46:42Z</time>
      </trkpt>
      <trkpt lat="46.00203" lon="6.47317">
        <ele>2033</ele>
        <time>2020-03-11T10:47:33Z</time>
      </trkpt>
      <trkpt lat="46.0021" lon="6.47316">
        <ele>2035</ele>
        <time>2020-03-11T10:47:57Z</time>
      </trkpt>
      <trkpt lat="46.00215" lon="6.47315">
        <ele>2039</ele>
        <time>2020-03-11T10:48:28Z</time>
      </trkpt>
      <trkpt lat="46.0022" lon="6.47315">
        <ele>2041</ele>
        <time>2020-03-11T10:48:46Z</time>
      </trkpt>
      <trkpt lat="46.00223" lon="6.47305">
        <ele>2043</ele>
        <time>2020-03-11T10:49:10Z</time>
      </trkpt>
      <trkpt lat="46.00221" lon="6.47298">
        <ele>2046</ele>
        <time>2020-03-11T10:49:40Z</time>
      </trkpt>
      <trkpt lat="46.00225" lon="6.47289">
        <ele>2048</ele>
        <time>2020-03-11T10:49:58Z</time>
      </trkpt>
      <trkpt lat="46.0023" lon="6.47289">
        <ele>2051</ele>
        <time>2020-03-11T10:51:36Z</time>
      </trkpt>
      <trkpt lat="46.00231" lon="6.47282">
        <ele>2053</ele>
        <time>2020-03-11T10:52:06Z</time>
      </trkpt>
      <trkpt lat="46.00234" lon="6.47277">
        <ele>2054</ele>
        <time>2020-03-11T10:52:18Z</time>
      </trkpt>
      <trkpt lat="46.0024" lon="6.47277">
        <ele>2056</ele>
        <time>2020-03-11T10:52:36Z</time>
      </trkpt>
      <trkpt lat="46.00244" lon="6.47273">
        <ele>2057</ele>
        <time>2020-03-11T10:52:48Z</time>
      </trkpt>
      <trkpt lat="46.0025" lon="6.4727">
        <ele>2059</ele>
        <time>2020-03-11T10:53:06Z</time>
      </trkpt>
      <trkpt lat="46.00255" lon="6.47272">
        <ele>2060</ele>
        <time>2020-03-11T10:53:15Z</time>
      </trkpt>
      <trkpt lat="46.00259" lon="6.47265">
        <ele>2063</ele>
        <time>2020-03-11T10:53:39Z</time>
      </trkpt>
      <trkpt lat="46.00266" lon="6.4725">
        <ele>2064</ele>
        <time>2020-03-11T10:54:05Z</time>
      </trkpt>
      <trkpt lat="46.00268" lon="6.47236">
        <ele>2065</ele>
        <time>2020-03-11T10:54:18Z</time>
      </trkpt>
      <trkpt lat="46.00265" lon="6.4721">
        <ele>2067</ele>
        <time>2020-03-11T10:54:48Z</time>
      </trkpt>
      <trkpt lat="46.00263" lon="6.47199">
        <ele>2061</ele>
        <time>2020-03-11T10:55:14Z</time>
      </trkpt>
      <trkpt lat="46.00259" lon="6.47194">
        <ele>2062</ele>
        <time>2020-03-11T10:55:26Z</time>
      </trkpt>
      <trkpt lat="46.0025" lon="6.47177">
        <ele>2064</ele>
        <time>2020-03-11T10:56:03Z</time>
      </trkpt>
      <trkpt lat="46.00246" lon="6.4716">
        <ele>2066</ele>
        <time>2020-03-11T10:56:30Z</time>
      </trkpt>
      <trkpt lat="46.00247" lon="6.47152">
        <ele>2067</ele>
        <time>2020-03-11T10:57:34Z</time>
      </trkpt>
      <trkpt lat="46.00244" lon="6.47146">
        <ele>2068</ele>
        <time>2020-03-11T10:57:44Z</time>
      </trkpt>
      <trkpt lat="46.00248" lon="6.47127">
        <ele>2071</ele>
        <time>2020-03-11T10:58:11Z</time>
      </trkpt>
      <trkpt lat="46.00253" lon="6.47112">
        <ele>2072</ele>
        <time>2020-03-11T10:58:27Z</time>
      </trkpt>
      <trkpt lat="46.00257" lon="6.47108">
        <ele>2076</ele>
        <time>2020-03-11T10:59:51Z</time>
      </trkpt>
      <trkpt lat="46.00262" lon="6.47106">
        <ele>2077</ele>
        <time>2020-03-11T11:00:09Z</time>
      </trkpt>
      <trkpt lat="46.00266" lon="6.47101">
        <ele>2079</ele>
        <time>2020-03-11T11:00:22Z</time>
      </trkpt>
      <trkpt lat="46.00271" lon="6.47097">
        <ele>2080</ele>
        <time>2020-03-11T11:00:34Z</time>
      </trkpt>
      <trkpt lat="46.00273" lon="6.4709">
        <ele>2081</ele>
        <time>2020-03-11T11:00:46Z</time>
      </trkpt>
      <trkpt lat="46.00278" lon="6.47088">
        <ele>2081</ele>
        <time>2020-03-11T11:01:34Z</time>
      </trkpt>
      <trkpt lat="46.00277" lon="6.47088">
        <ele>2084</ele>
        <time>2020-03-11T11:10:18Z</time>
      </trkpt>
      <trkpt lat="46.00279" lon="6.47092">
        <ele>2087</ele>
        <time>2020-03-11T11:51:49Z</time>
      </trkpt>
      <trkpt lat="46.00274" lon="6.47096">
        <ele>2088</ele>
        <time>2020-03-11T11:53:09Z</time>
      </trkpt>
      <trkpt lat="46.00259" lon="6.47108">
        <ele>2085</ele>
        <time>2020-03-11T11:53:17Z</time>
      </trkpt>
      <trkpt lat="46.00254" lon="6.47108">
        <ele>2084</ele>
        <time>2020-03-11T11:53:18Z</time>
      </trkpt>
      <trkpt lat="46.00247" lon="6.47117">
        <ele>2082</ele>
        <time>2020-03-11T11:53:20Z</time>
      </trkpt>
      <trkpt lat="46.00242" lon="6.47119">
        <ele>2081</ele>
        <time>2020-03-11T11:53:21Z</time>
      </trkpt>
      <trkpt lat="46.0024" lon="6.47125">
        <ele>2079</ele>
        <time>2020-03-11T11:53:22Z</time>
      </trkpt>
      <trkpt lat="46.0024" lon="6.47136">
        <ele>2077</ele>
        <time>2020-03-11T11:53:24Z</time>
      </trkpt>
      <trkpt lat="46.00234" lon="6.47139">
        <ele>2075</ele>
        <time>2020-03-11T11:53:26Z</time>
      </trkpt>
      <trkpt lat="46.00234" lon="6.47148">
        <ele>2073</ele>
        <time>2020-03-11T11:53:28Z</time>
      </trkpt>
      <trkpt lat="46.00226" lon="6.47151">
        <ele>2071</ele>
        <time>2020-03-11T11:53:30Z</time>
      </trkpt>
      <trkpt lat="46.00226" lon="6.47162">
        <ele>2066</ele>
        <time>2020-03-11T11:53:32Z</time>
      </trkpt>
      <trkpt lat="46.00224" lon="6.47172">
        <ele>2064</ele>
        <time>2020-03-11T11:53:34Z</time>
      </trkpt>
      <trkpt lat="46.00216" lon="6.4717">
        <ele>2060</ele>
        <time>2020-03-11T11:53:36Z</time>
      </trkpt>
      <trkpt lat="46.00212" lon="6.47177">
        <ele>2057</ele>
        <time>2020-03-11T11:53:38Z</time>
      </trkpt>
      <trkpt lat="46.00218" lon="6.47213">
        <ele>2052</ele>
        <time>2020-03-11T11:53:44Z</time>
      </trkpt>
      <trkpt lat="46.00213" lon="6.4722">
        <ele>2050</ele>
        <time>2020-03-11T11:53:46Z</time>
      </trkpt>
      <trkpt lat="46.00209" lon="6.47217">
        <ele>2049</ele>
        <time>2020-03-11T11:53:47Z</time>
      </trkpt>
      <trkpt lat="46.00203" lon="6.47215">
        <ele>2046</ele>
        <time>2020-03-11T11:53:49Z</time>
      </trkpt>
      <trkpt lat="46.00202" lon="6.47233">
        <ele>2043</ele>
        <time>2020-03-11T11:53:52Z</time>
      </trkpt>
      <trkpt lat="46.00199" lon="6.47239">
        <ele>2041</ele>
        <time>2020-03-11T11:53:53Z</time>
      </trkpt>
      <trkpt lat="46.00193" lon="6.47241">
        <ele>2039</ele>
        <time>2020-03-11T11:53:54Z</time>
      </trkpt>
      <trkpt lat="46.00189" lon="6.47241">
        <ele>2038</ele>
        <time>2020-03-11T11:53:55Z</time>
      </trkpt>
      <trkpt lat="46.00185" lon="6.47246">
        <ele>2035</ele>
        <time>2020-03-11T11:53:56Z</time>
      </trkpt>
      <trkpt lat="46.00186" lon="6.47252">
        <ele>2034</ele>
        <time>2020-03-11T11:53:57Z</time>
      </trkpt>
      <trkpt lat="46.00185" lon="6.47263">
        <ele>2033</ele>
        <time>2020-03-11T11:53:59Z</time>
      </trkpt>
      <trkpt lat="46.00181" lon="6.4726">
        <ele>2031</ele>
        <time>2020-03-11T11:54:01Z</time>
      </trkpt>
      <trkpt lat="46.00173" lon="6.4727">
        <ele>2029</ele>
        <time>2020-03-11T11:54:55Z</time>
      </trkpt>
      <trkpt lat="46.00171" lon="6.47278">
        <ele>2027</ele>
        <time>2020-03-11T11:54:56Z</time>
      </trkpt>
      <trkpt lat="46.00166" lon="6.47282">
        <ele>2026</ele>
        <time>2020-03-11T11:54:57Z</time>
      </trkpt>
      <trkpt lat="46.0016" lon="6.47281">
        <ele>2023</ele>
        <time>2020-03-11T11:54:58Z</time>
      </trkpt>
      <trkpt lat="46.0015" lon="6.47276">
        <ele>2020</ele>
        <time>2020-03-11T11:55:00Z</time>
      </trkpt>
      <trkpt lat="46.00145" lon="6.47276">
        <ele>2019</ele>
        <time>2020-03-11T11:55:01Z</time>
      </trkpt>
      <trkpt lat="46.0014" lon="6.47277">
        <ele>2018</ele>
        <time>2020-03-11T11:55:02Z</time>
      </trkpt>
      <trkpt lat="46.00136" lon="6.47281">
        <ele>2017</ele>
        <time>2020-03-11T11:55:03Z</time>
      </trkpt>
      <trkpt lat="46.00132" lon="6.47286">
        <ele>2016</ele>
        <time>2020-03-11T11:55:04Z</time>
      </trkpt>
      <trkpt lat="46.00144" lon="6.47291">
        <ele>2013</ele>
        <time>2020-03-11T11:55:06Z</time>
      </trkpt>
      <trkpt lat="46.00148" lon="6.473">
        <ele>2011</ele>
        <time>2020-03-11T11:55:08Z</time>
      </trkpt>
      <trkpt lat="46.0015" lon="6.47333">
        <ele>2008</ele>
        <time>2020-03-11T11:55:13Z</time>
      </trkpt>
      <trkpt lat="46.00146" lon="6.47337">
        <ele>2005</ele>
        <time>2020-03-11T11:55:15Z</time>
      </trkpt>
      <trkpt lat="46.00139" lon="6.47343">
        <ele>2001</ele>
        <time>2020-03-11T11:55:17Z</time>
      </trkpt>
      <trkpt lat="46.00139" lon="6.47356">
        <ele>1999</ele>
        <time>2020-03-11T11:55:19Z</time>
      </trkpt>
      <trkpt lat="46.00138" lon="6.47368">
        <ele>1996</ele>
        <time>2020-03-11T11:55:21Z</time>
      </trkpt>
      <trkpt lat="46.00131" lon="6.4737">
        <ele>1993</ele>
        <time>2020-03-11T11:55:23Z</time>
      </trkpt>
      <trkpt lat="46.00126" lon="6.47389">
        <ele>1988</ele>
        <time>2020-03-11T11:55:26Z</time>
      </trkpt>
      <trkpt lat="46.00119" lon="6.47393">
        <ele>1984</ele>
        <time>2020-03-11T11:55:28Z</time>
      </trkpt>
      <trkpt lat="46.00113" lon="6.47386">
        <ele>1983</ele>
        <time>2020-03-11T11:55:30Z</time>
      </trkpt>
      <trkpt lat="46.00097" lon="6.47379">
        <ele>1979</ele>
        <time>2020-03-11T11:56:01Z</time>
      </trkpt>
      <trkpt lat="46.00089" lon="6.47382">
        <ele>1976</ele>
        <time>2020-03-11T11:56:03Z</time>
      </trkpt>
      <trkpt lat="46.00088" lon="6.47388">
        <ele>1973</ele>
        <time>2020-03-11T11:56:04Z</time>
      </trkpt>
      <trkpt lat="46.00085" lon="6.47398">
        <ele>1969</ele>
        <time>2020-03-11T11:56:06Z</time>
      </trkpt>
      <trkpt lat="46.00077" lon="6.47396">
        <ele>1965</ele>
        <time>2020-03-11T11:56:08Z</time>
      </trkpt>
      <trkpt lat="46.00073" lon="6.474">
        <ele>1963</ele>
        <time>2020-03-11T11:56:09Z</time>
      </trkpt>
      <trkpt lat="46.00073" lon="6.47413">
        <ele>1959</ele>
        <time>2020-03-11T11:56:11Z</time>
      </trkpt>
      <trkpt lat="46.00069" lon="6.47417">
        <ele>1957</ele>
        <time>2020-03-11T11:56:12Z</time>
      </trkpt>
      <trkpt lat="46.00064" lon="6.47416">
        <ele>1954</ele>
        <time>2020-03-11T11:56:13Z</time>
      </trkpt>
      <trkpt lat="46.00046" lon="6.474">
        <ele>1946</ele>
        <time>2020-03-11T11:56:18Z</time>
      </trkpt>
      <trkpt lat="46.00041" lon="6.47401">
        <ele>1944</ele>
        <time>2020-03-11T11:56:20Z</time>
      </trkpt>
      <trkpt lat="46.00042" lon="6.47409">
        <ele>1941</ele>
        <time>2020-03-11T11:56:22Z</time>
      </trkpt>
      <trkpt lat="46.00044" lon="6.47415">
        <ele>1939</ele>
        <time>2020-03-11T11:57:02Z</time>
      </trkpt>
      <trkpt lat="46.00045" lon="6.47422">
        <ele>1938</ele>
        <time>2020-03-11T11:57:05Z</time>
      </trkpt>
      <trkpt lat="46.00041" lon="6.47427">
        <ele>1935</ele>
        <time>2020-03-11T11:57:07Z</time>
      </trkpt>
      <trkpt lat="46.00033" lon="6.47425">
        <ele>1932</ele>
        <time>2020-03-11T11:57:09Z</time>
      </trkpt>
      <trkpt lat="46.00028" lon="6.47432">
        <ele>1928</ele>
        <time>2020-03-11T11:57:11Z</time>
      </trkpt>
      <trkpt lat="46.00025" lon="6.47442">
        <ele>1924</ele>
        <time>2020-03-11T11:57:13Z</time>
      </trkpt>
      <trkpt lat="46.00018" lon="6.47442">
        <ele>1921</ele>
        <time>2020-03-11T11:57:15Z</time>
      </trkpt>
      <trkpt lat="46.00013" lon="6.47444">
        <ele>1918</ele>
        <time>2020-03-11T11:57:17Z</time>
      </trkpt>
      <trkpt lat="46.00015" lon="6.47454">
        <ele>1915</ele>
        <time>2020-03-11T11:57:19Z</time>
      </trkpt>
      <trkpt lat="46.00021" lon="6.47466">
        <ele>1915</ele>
        <time>2020-03-11T11:57:23Z</time>
      </trkpt>
      <trkpt lat="46.00023" lon="6.47476">
        <ele>1913</ele>
        <time>2020-03-11T11:57:25Z</time>
      </trkpt>
      <trkpt lat="46.00024" lon="6.47486">
        <ele>1912</ele>
        <time>2020-03-11T11:57:27Z</time>
      </trkpt>
      <trkpt lat="46.00023" lon="6.47497">
        <ele>1910</ele>
        <time>2020-03-11T11:57:29Z</time>
      </trkpt>
      <trkpt lat="46.00018" lon="6.47503">
        <ele>1907</ele>
        <time>2020-03-11T11:57:31Z</time>
      </trkpt>
      <trkpt lat="46.00011" lon="6.47487">
        <ele>1905</ele>
        <time>2020-03-11T11:57:37Z</time>
      </trkpt>
      <trkpt lat="46.00007" lon="6.47479">
        <ele>1903</ele>
        <time>2020-03-11T11:57:43Z</time>
      </trkpt>
      <trkpt lat="46.00001" lon="6.47479">
        <ele>1901</ele>
        <time>2020-03-11T11:58:04Z</time>
      </trkpt>
      <trkpt lat="45.99997" lon="6.47484">
        <ele>1897</ele>
        <time>2020-03-11T11:58:06Z</time>
      </trkpt>
      <trkpt lat="45.99993" lon="6.47491">
        <ele>1893</ele>
        <time>2020-03-11T11:58:08Z</time>
      </trkpt>
      <trkpt lat="45.99987" lon="6.47487">
        <ele>1891</ele>
        <time>2020-03-11T11:58:10Z</time>
      </trkpt>
      <trkpt lat="45.99983" lon="6.47481">
        <ele>1891</ele>
        <time>2020-03-11T11:58:12Z</time>
      </trkpt>
      <trkpt lat="45.99979" lon="6.47476">
        <ele>1889</ele>
        <time>2020-03-11T11:58:14Z</time>
      </trkpt>
      <trkpt lat="45.99973" lon="6.47478">
        <ele>1885</ele>
        <time>2020-03-11T11:58:17Z</time>
      </trkpt>
      <trkpt lat="45.99975" lon="6.47487">
        <ele>1883</ele>
        <time>2020-03-11T11:58:19Z</time>
      </trkpt>
      <trkpt lat="45.99972" lon="6.47493">
        <ele>1879</ele>
        <time>2020-03-11T11:58:21Z</time>
      </trkpt>
      <trkpt lat="45.99966" lon="6.4749">
        <ele>1877</ele>
        <time>2020-03-11T11:58:23Z</time>
      </trkpt>
      <trkpt lat="45.99964" lon="6.475">
        <ele>1872</ele>
        <time>2020-03-11T11:58:26Z</time>
      </trkpt>
      <trkpt lat="45.99962" lon="6.47506">
        <ele>1869</ele>
        <time>2020-03-11T11:58:28Z</time>
      </trkpt>
      <trkpt lat="45.99955" lon="6.475">
        <ele>1866</ele>
        <time>2020-03-11T11:58:30Z</time>
      </trkpt>
      <trkpt lat="45.99951" lon="6.47493">
        <ele>1865</ele>
        <time>2020-03-11T11:58:32Z</time>
      </trkpt>
      <trkpt lat="45.99949" lon="6.47484">
        <ele>1862</ele>
        <time>2020-03-11T11:59:10Z</time>
      </trkpt>
      <trkpt lat="45.99944" lon="6.47489">
        <ele>1859</ele>
        <time>2020-03-11T11:59:12Z</time>
      </trkpt>
      <trkpt lat="45.99944" lon="6.47499">
        <ele>1857</ele>
        <time>2020-03-11T11:59:14Z</time>
      </trkpt>
      <trkpt lat="45.99939" lon="6.47502">
        <ele>1853</ele>
        <time>2020-03-11T11:59:16Z</time>
      </trkpt>
      <trkpt lat="45.99933" lon="6.47497">
        <ele>1851</ele>
        <time>2020-03-11T11:59:18Z</time>
      </trkpt>
      <trkpt lat="45.99928" lon="6.47498">
        <ele>1849</ele>
        <time>2020-03-11T11:59:20Z</time>
      </trkpt>
      <trkpt lat="45.99929" lon="6.47509">
        <ele>1845</ele>
        <time>2020-03-11T11:59:23Z</time>
      </trkpt>
      <trkpt lat="45.99925" lon="6.47513">
        <ele>1842</ele>
        <time>2020-03-11T11:59:25Z</time>
      </trkpt>
      <trkpt lat="45.99919" lon="6.47511">
        <ele>1840</ele>
        <time>2020-03-11T11:59:27Z</time>
      </trkpt>
      <trkpt lat="45.99914" lon="6.47517">
        <ele>1838</ele>
        <time>2020-03-11T11:59:30Z</time>
      </trkpt>
      <trkpt lat="45.99917" lon="6.47527">
        <ele>1837</ele>
        <time>2020-03-11T11:59:39Z</time>
      </trkpt>
      <trkpt lat="45.99911" lon="6.47528">
        <ele>1835</ele>
        <time>2020-03-11T11:59:41Z</time>
      </trkpt>
      <trkpt lat="45.99905" lon="6.4752">
        <ele>1833</ele>
        <time>2020-03-11T11:59:43Z</time>
      </trkpt>
      <trkpt lat="45.99897" lon="6.47514">
        <ele>1831</ele>
        <time>2020-03-11T11:59:45Z</time>
      </trkpt>
      <trkpt lat="45.99877" lon="6.47518">
        <ele>1825</ele>
        <time>2020-03-11T11:59:49Z</time>
      </trkpt>
      <trkpt lat="45.99868" lon="6.47521">
        <ele>1822</ele>
        <time>2020-03-11T11:59:51Z</time>
      </trkpt>
      <trkpt lat="45.99861" lon="6.47523">
        <ele>1821</ele>
        <time>2020-03-11T11:59:53Z</time>
      </trkpt>
      <trkpt lat="45.99856" lon="6.47523">
        <ele>1821</ele>
        <time>2020-03-11T11:59:58Z</time>
      </trkpt>
      <trkpt lat="45.99859" lon="6.4753">
        <ele>1821</ele>
        <time>2020-03-11T12:00:23Z</time>
      </trkpt>
      <trkpt lat="45.99866" lon="6.47537">
        <ele>1820</ele>
        <time>2020-03-11T12:00:35Z</time>
      </trkpt>
      <trkpt lat="45.99875" lon="6.47547">
        <ele>1818</ele>
        <time>2020-03-11T12:00:40Z</time>
      </trkpt>
      <trkpt lat="45.99879" lon="6.47555">
        <ele>1817</ele>
        <time>2020-03-11T12:00:42Z</time>
      </trkpt>
      <trkpt lat="45.99877" lon="6.47563">
        <ele>1814</ele>
        <time>2020-03-11T12:00:44Z</time>
      </trkpt>
      <trkpt lat="45.9987" lon="6.47564">
        <ele>1812</ele>
        <time>2020-03-11T12:00:46Z</time>
      </trkpt>
      <trkpt lat="45.99865" lon="6.47566">
        <ele>1810</ele>
        <time>2020-03-11T12:00:48Z</time>
      </trkpt>
      <trkpt lat="45.99867" lon="6.47574">
        <ele>1808</ele>
        <time>2020-03-11T12:00:50Z</time>
      </trkpt>
      <trkpt lat="45.9987" lon="6.4759">
        <ele>1805</ele>
        <time>2020-03-11T12:00:54Z</time>
      </trkpt>
      <trkpt lat="45.99872" lon="6.47597">
        <ele>1804</ele>
        <time>2020-03-11T12:00:56Z</time>
      </trkpt>
      <trkpt lat="45.99875" lon="6.47603">
        <ele>1803</ele>
        <time>2020-03-11T12:00:58Z</time>
      </trkpt>
      <trkpt lat="45.99878" lon="6.47608">
        <ele>1802</ele>
        <time>2020-03-11T12:01:02Z</time>
      </trkpt>
      <trkpt lat="45.99871" lon="6.47608">
        <ele>1798</ele>
        <time>2020-03-11T12:01:26Z</time>
      </trkpt>
      <trkpt lat="45.99868" lon="6.47603">
        <ele>1797</ele>
        <time>2020-03-11T12:01:28Z</time>
      </trkpt>
      <trkpt lat="45.99862" lon="6.476">
        <ele>1795</ele>
        <time>2020-03-11T12:01:31Z</time>
      </trkpt>
      <trkpt lat="45.9986" lon="6.4761">
        <ele>1791</ele>
        <time>2020-03-11T12:01:33Z</time>
      </trkpt>
      <trkpt lat="45.99861" lon="6.47619">
        <ele>1788</ele>
        <time>2020-03-11T12:01:35Z</time>
      </trkpt>
      <trkpt lat="45.99857" lon="6.47623">
        <ele>1785</ele>
        <time>2020-03-11T12:01:38Z</time>
      </trkpt>
      <trkpt lat="45.99851" lon="6.47619">
        <ele>1784</ele>
        <time>2020-03-11T12:01:40Z</time>
      </trkpt>
      <trkpt lat="45.99847" lon="6.47625">
        <ele>1781</ele>
        <time>2020-03-11T12:01:42Z</time>
      </trkpt>
      <trkpt lat="45.99847" lon="6.47633">
        <ele>1778</ele>
        <time>2020-03-11T12:01:44Z</time>
      </trkpt>
      <trkpt lat="45.9984" lon="6.47632">
        <ele>1776</ele>
        <time>2020-03-11T12:01:46Z</time>
      </trkpt>
      <trkpt lat="45.99834" lon="6.47634">
        <ele>1772</ele>
        <time>2020-03-11T12:01:48Z</time>
      </trkpt>
      <trkpt lat="45.99837" lon="6.47643">
        <ele>1771</ele>
        <time>2020-03-11T12:01:54Z</time>
      </trkpt>
      <trkpt lat="45.99831" lon="6.47643">
        <ele>1768</ele>
        <time>2020-03-11T12:02:29Z</time>
      </trkpt>
      <trkpt lat="45.9983" lon="6.47637">
        <ele>1768</ele>
        <time>2020-03-11T12:02:31Z</time>
      </trkpt>
      <trkpt lat="45.99824" lon="6.47633">
        <ele>1765</ele>
        <time>2020-03-11T12:02:34Z</time>
      </trkpt>
      <trkpt lat="45.99819" lon="6.47639">
        <ele>1762</ele>
        <time>2020-03-11T12:02:37Z</time>
      </trkpt>
      <trkpt lat="45.99809" lon="6.47631">
        <ele>1759</ele>
        <time>2020-03-11T12:02:41Z</time>
      </trkpt>
      <trkpt lat="45.99762" lon="6.47636">
        <ele>1753</ele>
        <time>2020-03-11T12:03:14Z</time>
      </trkpt>
      <trkpt lat="45.99758" lon="6.47638">
        <ele>1753</ele>
        <time>2020-03-11T12:03:17Z</time>
      </trkpt>
      <trkpt lat="45.99751" lon="6.47645">
        <ele>1753</ele>
        <time>2020-03-11T12:04:07Z</time>
      </trkpt>
      <trkpt lat="45.99746" lon="6.47648">
        <ele>1751</ele>
        <time>2020-03-11T12:04:09Z</time>
      </trkpt>
      <trkpt lat="45.99731" lon="6.47672">
        <ele>1747</ele>
        <time>2020-03-11T12:04:17Z</time>
      </trkpt>
      <trkpt lat="45.99727" lon="6.47677">
        <ele>1746</ele>
        <time>2020-03-11T12:04:19Z</time>
      </trkpt>
      <trkpt lat="45.99721" lon="6.47676">
        <ele>1745</ele>
        <time>2020-03-11T12:04:25Z</time>
      </trkpt>
      <trkpt lat="45.99686" lon="6.47637">
        <ele>1736</ele>
        <time>2020-03-11T12:04:43Z</time>
      </trkpt>
      <trkpt lat="45.99651" lon="6.47613">
        <ele>1729</ele>
        <time>2020-03-11T12:05:01Z</time>
      </trkpt>
      <trkpt lat="45.99646" lon="6.47611">
        <ele>1729</ele>
        <time>2020-03-11T12:05:03Z</time>
      </trkpt>
      <trkpt lat="45.9964" lon="6.47608">
        <ele>1728</ele>
        <time>2020-03-11T12:05:05Z</time>
      </trkpt>
      <trkpt lat="45.99636" lon="6.47602">
        <ele>1727</ele>
        <time>2020-03-11T12:05:08Z</time>
      </trkpt>
      <trkpt lat="45.9963" lon="6.47587">
        <ele>1725</ele>
        <time>2020-03-11T12:05:20Z</time>
      </trkpt>
      <trkpt lat="45.99627" lon="6.47579">
        <ele>1725</ele>
        <time>2020-03-11T12:05:32Z</time>
      </trkpt>
      <trkpt lat="45.99623" lon="6.47572">
        <ele>1726</ele>
        <time>2020-03-11T12:05:44Z</time>
      </trkpt>
      <trkpt lat="45.99617" lon="6.47558">
        <ele>1728</ele>
        <time>2020-03-11T12:06:08Z</time>
      </trkpt>
      <trkpt lat="45.99612" lon="6.47551">
        <ele>1730</ele>
        <time>2020-03-11T12:06:26Z</time>
      </trkpt>
      <trkpt lat="45.99607" lon="6.47552">
        <ele>1731</ele>
        <time>2020-03-11T12:06:44Z</time>
      </trkpt>
      <trkpt lat="45.99599" lon="6.4756">
        <ele>1737</ele>
        <time>2020-03-11T12:07:38Z</time>
      </trkpt>
      <trkpt lat="45.99594" lon="6.47565">
        <ele>1738</ele>
        <time>2020-03-11T12:08:08Z</time>
      </trkpt>
      <trkpt lat="45.99588" lon="6.47568">
        <ele>1739</ele>
        <time>2020-03-11T12:08:11Z</time>
      </trkpt>
      <trkpt lat="45.99581" lon="6.4757">
        <ele>1738</ele>
        <time>2020-03-11T12:08:13Z</time>
      </trkpt>
      <trkpt lat="45.99577" lon="6.4757">
        <ele>1738</ele>
        <time>2020-03-11T12:08:17Z</time>
      </trkpt>
      <trkpt lat="45.9957" lon="6.47571">
        <ele>1738</ele>
        <time>2020-03-11T12:08:29Z</time>
      </trkpt>
      <trkpt lat="45.99557" lon="6.4758">
        <ele>1739</ele>
        <time>2020-03-11T12:08:52Z</time>
      </trkpt>
      <trkpt lat="45.99548" lon="6.47583">
        <ele>1739</ele>
        <time>2020-03-11T12:09:04Z</time>
      </trkpt>
      <trkpt lat="45.99529" lon="6.47582">
        <ele>1736</ele>
        <time>2020-03-11T12:09:13Z</time>
      </trkpt>
      <trkpt lat="45.99511" lon="6.47569">
        <ele>1733</ele>
        <time>2020-03-11T12:09:58Z</time>
      </trkpt>
      <trkpt lat="45.99459" lon="6.47524">
        <ele>1721</ele>
        <time>2020-03-11T12:10:18Z</time>
      </trkpt>
      <trkpt lat="45.99451" lon="6.47515">
        <ele>1719</ele>
        <time>2020-03-11T12:10:22Z</time>
      </trkpt>
      <trkpt lat="45.99447" lon="6.47526">
        <ele>1715</ele>
        <time>2020-03-11T12:10:24Z</time>
      </trkpt>
      <trkpt lat="45.99448" lon="6.47533">
        <ele>1713</ele>
        <time>2020-03-11T12:10:25Z</time>
      </trkpt>
      <trkpt lat="45.99447" lon="6.47543">
        <ele>1711</ele>
        <time>2020-03-11T12:10:27Z</time>
      </trkpt>
      <trkpt lat="45.99434" lon="6.47535">
        <ele>1708</ele>
        <time>2020-03-11T12:10:31Z</time>
      </trkpt>
      <trkpt lat="45.99426" lon="6.47524">
        <ele>1706</ele>
        <time>2020-03-11T12:10:35Z</time>
      </trkpt>
      <trkpt lat="45.99421" lon="6.47522">
        <ele>1704</ele>
        <time>2020-03-11T12:10:37Z</time>
      </trkpt>
      <trkpt lat="45.99417" lon="6.47527">
        <ele>1703</ele>
        <time>2020-03-11T12:10:39Z</time>
      </trkpt>
      <trkpt lat="45.99415" lon="6.47536">
        <ele>1702</ele>
        <time>2020-03-11T12:10:41Z</time>
      </trkpt>
      <trkpt lat="45.99411" lon="6.47536">
        <ele>1701</ele>
        <time>2020-03-11T12:10:43Z</time>
      </trkpt>
      <trkpt lat="45.99407" lon="6.4753">
        <ele>1700</ele>
        <time>2020-03-11T12:10:45Z</time>
      </trkpt>
      <trkpt lat="45.99403" lon="6.47525">
        <ele>1699</ele>
        <time>2020-03-11T12:10:47Z</time>
      </trkpt>
      <trkpt lat="45.99399" lon="6.47533">
        <ele>1695</ele>
        <time>2020-03-11T12:10:50Z</time>
      </trkpt>
      <trkpt lat="45.99398" lon="6.47541">
        <ele>1695</ele>
        <time>2020-03-11T12:10:52Z</time>
      </trkpt>
      <trkpt lat="45.99394" lon="6.47546">
        <ele>1693</ele>
        <time>2020-03-11T12:10:54Z</time>
      </trkpt>
      <trkpt lat="45.9939" lon="6.47542">
        <ele>1692</ele>
        <time>2020-03-11T12:10:56Z</time>
      </trkpt>
      <trkpt lat="45.99386" lon="6.47538">
        <ele>1691</ele>
        <time>2020-03-11T12:10:58Z</time>
      </trkpt>
      <trkpt lat="45.99381" lon="6.47542">
        <ele>1687</ele>
        <time>2020-03-11T12:11:00Z</time>
      </trkpt>
      <trkpt lat="45.99382" lon="6.47548">
        <ele>1687</ele>
        <time>2020-03-11T12:11:02Z</time>
      </trkpt>
      <trkpt lat="45.99385" lon="6.47561">
        <ele>1685</ele>
        <time>2020-03-11T12:11:16Z</time>
      </trkpt>
      <trkpt lat="45.99388" lon="6.47577">
        <ele>1684</ele>
        <time>2020-03-11T12:11:22Z</time>
      </trkpt>
      <trkpt lat="45.99381" lon="6.47584">
        <ele>1680</ele>
        <time>2020-03-11T12:11:27Z</time>
      </trkpt>
      <trkpt lat="45.99378" lon="6.47591">
        <ele>1676</ele>
        <time>2020-03-11T12:11:30Z</time>
      </trkpt>
      <trkpt lat="45.99378" lon="6.47668">
        <ele>1666</ele>
        <time>2020-03-11T12:11:43Z</time>
      </trkpt>
      <trkpt lat="45.99381" lon="6.4768">
        <ele>1664</ele>
        <time>2020-03-11T12:11:45Z</time>
      </trkpt>
      <trkpt lat="45.99382" lon="6.47691">
        <ele>1663</ele>
        <time>2020-03-11T12:11:47Z</time>
      </trkpt>
      <trkpt lat="45.99376" lon="6.47689">
        <ele>1662</ele>
        <time>2020-03-11T12:11:56Z</time>
      </trkpt>
      <trkpt lat="45.99362" lon="6.47678">
        <ele>1659</ele>
        <time>2020-03-11T12:12:14Z</time>
      </trkpt>
      <trkpt lat="45.99305" lon="6.47582">
        <ele>1641</ele>
        <time>2020-03-11T12:12:49Z</time>
      </trkpt>
      <trkpt lat="45.9926" lon="6.4751">
        <ele>1629</ele>
        <time>2020-03-11T12:13:21Z</time>
      </trkpt>
      <trkpt lat="45.99237" lon="6.47473">
        <ele>1621</ele>
        <time>2020-03-11T12:13:37Z</time>
      </trkpt>
      <trkpt lat="45.99235" lon="6.47481">
        <ele>1619</ele>
        <time>2020-03-11T12:13:44Z</time>
      </trkpt>
      <trkpt lat="45.99237" lon="6.47496">
        <ele>1617</ele>
        <time>2020-03-11T12:13:49Z</time>
      </trkpt>
      <trkpt lat="45.99233" lon="6.47499">
        <ele>1616</ele>
        <time>2020-03-11T12:13:52Z</time>
      </trkpt>
      <trkpt lat="45.99229" lon="6.47496">
        <ele>1615</ele>
        <time>2020-03-11T12:13:54Z</time>
      </trkpt>
      <trkpt lat="45.99225" lon="6.47504">
        <ele>1611</ele>
        <time>2020-03-11T12:13:57Z</time>
      </trkpt>
      <trkpt lat="45.99227" lon="6.47527">
        <ele>1610</ele>
        <time>2020-03-11T12:14:03Z</time>
      </trkpt>
      <trkpt lat="45.99227" lon="6.47534">
        <ele>1609</ele>
        <time>2020-03-11T12:14:05Z</time>
      </trkpt>
      <trkpt lat="45.99225" lon="6.47542">
        <ele>1608</ele>
        <time>2020-03-11T12:14:07Z</time>
      </trkpt>
      <trkpt lat="45.9922" lon="6.47549">
        <ele>1607</ele>
        <time>2020-03-11T12:14:09Z</time>
      </trkpt>
      <trkpt lat="45.99215" lon="6.47544">
        <ele>1607</ele>
        <time>2020-03-11T12:14:13Z</time>
      </trkpt>
      <trkpt lat="45.99213" lon="6.47537">
        <ele>1607</ele>
        <time>2020-03-11T12:14:17Z</time>
      </trkpt>
      <trkpt lat="45.99212" lon="6.47529">
        <ele>1608</ele>
        <time>2020-03-11T12:15:07Z</time>
      </trkpt>
      <trkpt lat="45.99206" lon="6.47515">
        <ele>1607</ele>
        <time>2020-03-11T12:15:16Z</time>
      </trkpt>
      <trkpt lat="45.99203" lon="6.4751">
        <ele>1607</ele>
        <time>2020-03-11T12:15:20Z</time>
      </trkpt>
      <trkpt lat="45.99198" lon="6.47506">
        <ele>1607</ele>
        <time>2020-03-11T12:15:24Z</time>
      </trkpt>
      <trkpt lat="45.99138" lon="6.47477">
        <ele>1596</ele>
        <time>2020-03-11T12:15:50Z</time>
      </trkpt>
      <trkpt lat="45.99072" lon="6.47404">
        <ele>1586</ele>
        <time>2020-03-11T12:16:24Z</time>
      </trkpt>
      <trkpt lat="45.99056" lon="6.47381">
        <ele>1583</ele>
        <time>2020-03-11T12:16:50Z</time>
      </trkpt>
      <trkpt lat="45.99045" lon="6.47377">
        <ele>1581</ele>
        <time>2020-03-11T12:16:55Z</time>
      </trkpt>
      <trkpt lat="45.9902" lon="6.47377">
        <ele>1580</ele>
        <time>2020-03-11T12:17:15Z</time>
      </trkpt>
      <trkpt lat="45.98989" lon="6.47375">
        <ele>1576</ele>
        <time>2020-03-11T12:17:25Z</time>
      </trkpt>
      <trkpt lat="45.98977" lon="6.47372">
        <ele>1573</ele>
        <time>2020-03-11T12:17:31Z</time>
      </trkpt>
      <trkpt lat="45.98955" lon="6.47371">
        <ele>1569</ele>
        <time>2020-03-11T12:17:37Z</time>
      </trkpt>
      <trkpt lat="45.98913" lon="6.4731">
        <ele>1556</ele>
        <time>2020-03-11T12:18:07Z</time>
      </trkpt>
      <trkpt lat="45.98906" lon="6.47296">
        <ele>1553</ele>
        <time>2020-03-11T12:18:10Z</time>
      </trkpt>
      <trkpt lat="45.98897" lon="6.47285">
        <ele>1551</ele>
        <time>2020-03-11T12:18:13Z</time>
      </trkpt>
      <trkpt lat="45.98891" lon="6.47272">
        <ele>1549</ele>
        <time>2020-03-11T12:18:16Z</time>
      </trkpt>
      <trkpt lat="45.98886" lon="6.47259">
        <ele>1547</ele>
        <time>2020-03-11T12:18:19Z</time>
      </trkpt>
      <trkpt lat="45.98872" lon="6.47217">
        <ele>1540</ele>
        <time>2020-03-11T12:18:29Z</time>
      </trkpt>
      <trkpt lat="45.98868" lon="6.47204">
        <ele>1539</ele>
        <time>2020-03-11T12:18:33Z</time>
      </trkpt>
      <trkpt lat="45.98856" lon="6.4718">
        <ele>1535</ele>
        <time>2020-03-11T12:18:40Z</time>
      </trkpt>
      <trkpt lat="45.98847" lon="6.47164">
        <ele>1534</ele>
        <time>2020-03-11T12:18:56Z</time>
      </trkpt>
      <trkpt lat="45.98845" lon="6.47149">
        <ele>1533</ele>
        <time>2020-03-11T12:19:01Z</time>
      </trkpt>
      <trkpt lat="45.98843" lon="6.47142">
        <ele>1532</ele>
        <time>2020-03-11T12:19:03Z</time>
      </trkpt>
      <trkpt lat="45.98837" lon="6.4714">
        <ele>1531</ele>
        <time>2020-03-11T12:19:06Z</time>
      </trkpt>
      <trkpt lat="45.98838" lon="6.47131">
        <ele>1528</ele>
        <time>2020-03-11T12:19:12Z</time>
      </trkpt>
      <trkpt lat="45.98838" lon="6.47121">
        <ele>1525</ele>
        <time>2020-03-11T12:19:15Z</time>
      </trkpt>
      <trkpt lat="45.98841" lon="6.47114">
        <ele>1523</ele>
        <time>2020-03-11T12:19:18Z</time>
      </trkpt>
      <trkpt lat="45.98843" lon="6.47104">
        <ele>1518</ele>
        <time>2020-03-11T12:19:22Z</time>
      </trkpt>
      <trkpt lat="45.98841" lon="6.47092">
        <ele>1514</ele>
        <time>2020-03-11T12:19:29Z</time>
      </trkpt>
      <trkpt lat="45.98832" lon="6.47091">
        <ele>1512</ele>
        <time>2020-03-11T12:19:30Z</time>
      </trkpt>
      <trkpt lat="45.98823" lon="6.4709">
        <ele>1510</ele>
        <time>2020-03-11T12:19:32Z</time>
      </trkpt>
      <trkpt lat="45.98819" lon="6.47089">
        <ele>1510</ele>
        <time>2020-03-11T12:19:33Z</time>
      </trkpt>
      <trkpt lat="45.98813" lon="6.47087">
        <ele>1509</ele>
        <time>2020-03-11T12:19:34Z</time>
      </trkpt>
      <trkpt lat="45.98807" lon="6.47085">
        <ele>1509</ele>
        <time>2020-03-11T12:19:36Z</time>
      </trkpt>
      <trkpt lat="45.98802" lon="6.47081">
        <ele>1508</ele>
        <time>2020-03-11T12:19:38Z</time>
      </trkpt>
      <trkpt lat="45.9872" lon="6.46966">
        <ele>1498</ele>
        <time>2020-03-11T12:20:10Z</time>
      </trkpt>
      <trkpt lat="45.98698" lon="6.46931">
        <ele>1496</ele>
        <time>2020-03-11T12:20:21Z</time>
      </trkpt>
      <trkpt lat="45.98638" lon="6.46775">
        <ele>1486</ele>
        <time>2020-03-11T12:20:49Z</time>
      </trkpt>
      <trkpt lat="45.98633" lon="6.46763">
        <ele>1485</ele>
        <time>2020-03-11T12:20:52Z</time>
      </trkpt>
      <trkpt lat="45.98626" lon="6.46757">
        <ele>1485</ele>
        <time>2020-03-11T12:20:55Z</time>
      </trkpt>
      <trkpt lat="45.98623" lon="6.46751">
        <ele>1484</ele>
        <time>2020-03-11T12:20:57Z</time>
      </trkpt>
      <trkpt lat="45.98575" lon="6.46666">
        <ele>1479</ele>
        <time>2020-03-11T12:21:24Z</time>
      </trkpt>
      <trkpt lat="45.98529" lon="6.46623">
        <ele>1473</ele>
        <time>2020-03-11T12:21:38Z</time>
      </trkpt>
      <trkpt lat="45.98489" lon="6.46601">
        <ele>1469</ele>
        <time>2020-03-11T12:21:48Z</time>
      </trkpt>
      <trkpt lat="45.98483" lon="6.466">
        <ele>1468</ele>
        <time>2020-03-11T12:21:50Z</time>
      </trkpt>
      <trkpt lat="45.98402" lon="6.46563">
        <ele>1461</ele>
        <time>2020-03-11T12:22:21Z</time>
      </trkpt>
      <trkpt lat="45.98396" lon="6.46564">
        <ele>1460</ele>
        <time>2020-03-11T12:22:25Z</time>
      </trkpt>
      <trkpt lat="45.983" lon="6.46529">
        <ele>1452</ele>
        <time>2020-03-11T12:22:56Z</time>
      </trkpt>
      <trkpt lat="45.9829" lon="6.46529">
        <ele>1451</ele>
        <time>2020-03-11T12:23:02Z</time>
      </trkpt>
      <trkpt lat="45.98284" lon="6.46533">
        <ele>1451</ele>
        <time>2020-03-11T12:24:00Z</time>
      </trkpt>
      <trkpt lat="45.98248" lon="6.46542">
        <ele>1449</ele>
        <time>2020-03-11T12:24:12Z</time>
      </trkpt>
      <trkpt lat="45.9823" lon="6.46547">
        <ele>1448</ele>
        <time>2020-03-11T12:24:18Z</time>
      </trkpt>
      <trkpt lat="45.98213" lon="6.46549">
        <ele>1446</ele>
        <time>2020-03-11T12:24:24Z</time>
      </trkpt>
      <trkpt lat="45.98206" lon="6.46551">
        <ele>1446</ele>
        <time>2020-03-11T12:24:27Z</time>
      </trkpt>
      <trkpt lat="45.98202" lon="6.46553">
        <ele>1445</ele>
        <time>2020-03-11T12:24:30Z</time>
      </trkpt>
      <trkpt lat="45.98195" lon="6.46555">
        <ele>1445</ele>
        <time>2020-03-11T12:24:33Z</time>
      </trkpt>
      <trkpt lat="45.98189" lon="6.46557">
        <ele>1445</ele>
        <time>2020-03-11T12:24:35Z</time>
      </trkpt>
      <trkpt lat="45.98071" lon="6.46584">
        <ele>1434</ele>
        <time>2020-03-11T12:25:07Z</time>
      </trkpt>
      <trkpt lat="45.98061" lon="6.4658">
        <ele>1433</ele>
        <time>2020-03-11T12:25:14Z</time>
      </trkpt>
      <trkpt lat="45.98058" lon="6.46574">
        <ele>1431</ele>
        <time>2020-03-11T12:25:39Z</time>
      </trkpt>
      <trkpt lat="45.98053" lon="6.46571">
        <ele>1429</ele>
        <time>2020-03-11T12:25:41Z</time>
      </trkpt>
      <trkpt lat="45.98053" lon="6.46564">
        <ele>1426</ele>
        <time>2020-03-11T12:25:43Z</time>
      </trkpt>
      <trkpt lat="45.98055" lon="6.46555">
        <ele>1422</ele>
        <time>2020-03-11T12:25:45Z</time>
      </trkpt>
      <trkpt lat="45.9805" lon="6.46548">
        <ele>1419</ele>
        <time>2020-03-11T12:25:47Z</time>
      </trkpt>
      <trkpt lat="45.98049" lon="6.4654">
        <ele>1417</ele>
        <time>2020-03-11T12:25:49Z</time>
      </trkpt>
      <trkpt lat="45.98045" lon="6.46532">
        <ele>1414</ele>
        <time>2020-03-11T12:25:51Z</time>
      </trkpt>
      <trkpt lat="45.9804" lon="6.46526">
        <ele>1412</ele>
        <time>2020-03-11T12:25:53Z</time>
      </trkpt>
      <trkpt lat="45.98041" lon="6.46517">
        <ele>1409</ele>
        <time>2020-03-11T12:25:55Z</time>
      </trkpt>
      <trkpt lat="45.98038" lon="6.46508">
        <ele>1407</ele>
        <time>2020-03-11T12:25:57Z</time>
      </trkpt>
      <trkpt lat="45.98031" lon="6.46504">
        <ele>1406</ele>
        <time>2020-03-11T12:25:59Z</time>
      </trkpt>
      <trkpt lat="45.98025" lon="6.46504">
        <ele>1405</ele>
        <time>2020-03-11T12:26:01Z</time>
      </trkpt>
      <trkpt lat="45.98021" lon="6.46507">
        <ele>1404</ele>
        <time>2020-03-11T12:27:09Z</time>
      </trkpt>
      <trkpt lat="45.98015" lon="6.46506">
        <ele>1404</ele>
        <time>2020-03-11T12:27:21Z</time>
      </trkpt>
      <trkpt lat="45.98011" lon="6.46501">
        <ele>1403</ele>
        <time>2020-03-11T12:27:23Z</time>
      </trkpt>
      <trkpt lat="45.9801" lon="6.46492">
        <ele>1401</ele>
        <time>2020-03-11T12:27:25Z</time>
      </trkpt>
      <trkpt lat="45.98015" lon="6.46484">
        <ele>1400</ele>
        <time>2020-03-11T12:27:27Z</time>
      </trkpt>
      <trkpt lat="45.98017" lon="6.46477">
        <ele>1399</ele>
        <time>2020-03-11T12:27:29Z</time>
      </trkpt>
      <trkpt lat="45.98018" lon="6.46469">
        <ele>1398</ele>
        <time>2020-03-11T12:27:31Z</time>
      </trkpt>
      <trkpt lat="45.98017" lon="6.46462">
        <ele>1397</ele>
        <time>2020-03-11T12:27:33Z</time>
      </trkpt>
      <trkpt lat="45.9801" lon="6.46445">
        <ele>1393</ele>
        <time>2020-03-11T12:27:39Z</time>
      </trkpt>
      <trkpt lat="45.98004" lon="6.46442">
        <ele>1391</ele>
        <time>2020-03-11T12:27:42Z</time>
      </trkpt>
      <trkpt lat="45.98002" lon="6.46435">
        <ele>1390</ele>
        <time>2020-03-11T12:27:45Z</time>
      </trkpt>
      <trkpt lat="45.98005" lon="6.46418">
        <ele>1387</ele>
        <time>2020-03-11T12:27:49Z</time>
      </trkpt>
      <trkpt lat="45.98003" lon="6.46407">
        <ele>1385</ele>
        <time>2020-03-11T12:27:51Z</time>
      </trkpt>
      <trkpt lat="45.97997" lon="6.46401">
        <ele>1383</ele>
        <time>2020-03-11T12:27:53Z</time>
      </trkpt>
      <trkpt lat="45.97989" lon="6.46397">
        <ele>1381</ele>
        <time>2020-03-11T12:27:55Z</time>
      </trkpt>
      <trkpt lat="45.9797" lon="6.46385">
        <ele>1375</ele>
        <time>2020-03-11T12:28:00Z</time>
      </trkpt>
      <trkpt lat="45.97958" lon="6.46376">
        <ele>1372</ele>
        <time>2020-03-11T12:28:03Z</time>
      </trkpt>
      <trkpt lat="45.97953" lon="6.46363">
        <ele>1370</ele>
        <time>2020-03-11T12:28:05Z</time>
      </trkpt>
      <trkpt lat="45.97949" lon="6.46359">
        <ele>1369</ele>
        <time>2020-03-11T12:28:06Z</time>
      </trkpt>
      <trkpt lat="45.97906" lon="6.46322">
        <ele>1361</ele>
        <time>2020-03-11T12:28:18Z</time>
      </trkpt>
      <trkpt lat="45.97896" lon="6.4631">
        <ele>1359</ele>
        <time>2020-03-11T12:28:21Z</time>
      </trkpt>
      <trkpt lat="45.9788" lon="6.46282">
        <ele>1355</ele>
        <time>2020-03-11T12:28:29Z</time>
      </trkpt>
      <trkpt lat="45.9787" lon="6.4627">
        <ele>1353</ele>
        <time>2020-03-11T12:28:33Z</time>
      </trkpt>
      <trkpt lat="45.97867" lon="6.46262">
        <ele>1352</ele>
        <time>2020-03-11T12:28:35Z</time>
      </trkpt>
      <trkpt lat="45.97867" lon="6.46252">
        <ele>1350</ele>
        <time>2020-03-11T12:28:37Z</time>
      </trkpt>
      <trkpt lat="45.97864" lon="6.46245">
        <ele>1349</ele>
        <time>2020-03-11T12:28:39Z</time>
      </trkpt>
      <trkpt lat="45.97859" lon="6.46241">
        <ele>1348</ele>
        <time>2020-03-11T12:28:41Z</time>
      </trkpt>
      <trkpt lat="45.97853" lon="6.46234">
        <ele>1347</ele>
        <time>2020-03-11T12:28:43Z</time>
      </trkpt>
      <trkpt lat="45.97825" lon="6.46213">
        <ele>1343</ele>
        <time>2020-03-11T12:28:54Z</time>
      </trkpt>
      <trkpt lat="45.97804" lon="6.46204">
        <ele>1340</ele>
        <time>2020-03-11T12:29:00Z</time>
      </trkpt>
      <trkpt lat="45.97767" lon="6.46202">
        <ele>1334</ele>
        <time>2020-03-11T12:29:10Z</time>
      </trkpt>
      <trkpt lat="45.97751" lon="6.46194">
        <ele>1332</ele>
        <time>2020-03-11T12:29:14Z</time>
      </trkpt>
      <trkpt lat="45.97744" lon="6.4619">
        <ele>1330</ele>
        <time>2020-03-11T12:29:16Z</time>
      </trkpt>
      <trkpt lat="45.97738" lon="6.46189">
        <ele>1329</ele>
        <time>2020-03-11T12:29:18Z</time>
      </trkpt>
      <trkpt lat="45.97731" lon="6.4619">
        <ele>1328</ele>
        <time>2020-03-11T12:29:20Z</time>
      </trkpt>
      <trkpt lat="45.97727" lon="6.46192">
        <ele>1327</ele>
        <time>2020-03-11T12:29:22Z</time>
      </trkpt>
      <trkpt lat="45.97722" lon="6.46194">
        <ele>1326</ele>
        <time>2020-03-11T12:29:24Z</time>
      </trkpt>
      <trkpt lat="45.97718" lon="6.46196">
        <ele>1325</ele>
        <time>2020-03-11T12:29:26Z</time>
      </trkpt>
      <trkpt lat="45.97713" lon="6.46194">
        <ele>1324</ele>
        <time>2020-03-11T12:29:28Z</time>
      </trkpt>
      <trkpt lat="45.97701" lon="6.46165">
        <ele>1321</ele>
        <time>2020-03-11T12:29:41Z</time>
      </trkpt>
      <trkpt lat="45.97693" lon="6.46152">
        <ele>1319</ele>
        <time>2020-03-11T12:29:47Z</time>
      </trkpt>
      <trkpt lat="45.97694" lon="6.46145">
        <ele>1317</ele>
        <time>2020-03-11T12:29:53Z</time>
      </trkpt>
      <trkpt lat="45.97696" lon="6.46135">
        <ele>1313</ele>
        <time>2020-03-11T12:29:56Z</time>
      </trkpt>
      <trkpt lat="45.97692" lon="6.46127">
        <ele>1311</ele>
        <time>2020-03-11T12:29:59Z</time>
      </trkpt>
      <trkpt lat="45.97689" lon="6.4612">
        <ele>1311</ele>
        <time>2020-03-11T12:30:01Z</time>
      </trkpt>
      <trkpt lat="45.97692" lon="6.46113">
        <ele>1310</ele>
        <time>2020-03-11T12:30:03Z</time>
      </trkpt>
      <trkpt lat="45.97705" lon="6.46088">
        <ele>1309</ele>
        <time>2020-03-11T12:30:20Z</time>
      </trkpt>
      <trkpt lat="45.97704" lon="6.46081">
        <ele>1309</ele>
        <time>2020-03-11T12:30:23Z</time>
      </trkpt>
      <trkpt lat="45.97696" lon="6.46069">
        <ele>1309</ele>
        <time>2020-03-11T12:30:33Z</time>
      </trkpt>
      <trkpt lat="45.97677" lon="6.46053">
        <ele>1306</ele>
        <time>2020-03-11T12:30:49Z</time>
      </trkpt>
      <trkpt lat="45.97672" lon="6.46051">
        <ele>1306</ele>
        <time>2020-03-11T12:30:51Z</time>
      </trkpt>
      <trkpt lat="45.97664" lon="6.46051">
        <ele>1304</ele>
        <time>2020-03-11T12:30:53Z</time>
      </trkpt>
      <trkpt lat="45.97656" lon="6.4605">
        <ele>1304</ele>
        <time>2020-03-11T12:30:55Z</time>
      </trkpt>
      <trkpt lat="45.97652" lon="6.46049">
        <ele>1304</ele>
        <time>2020-03-11T12:30:57Z</time>
      </trkpt>
      <trkpt lat="45.97647" lon="6.46046">
        <ele>1304</ele>
        <time>2020-03-11T12:31:00Z</time>
      </trkpt>
      <trkpt lat="45.97643" lon="6.46041">
        <ele>1302</ele>
        <time>2020-03-11T12:32:27Z</time>
      </trkpt>
      <trkpt lat="45.97638" lon="6.46032">
        <ele>1301</ele>
        <time>2020-03-11T12:33:09Z</time>
      </trkpt>
      <trkpt lat="45.97634" lon="6.46028">
        <ele>1301</ele>
        <time>2020-03-11T12:33:14Z</time>
      </trkpt>
      <trkpt lat="45.97629" lon="6.46038">
        <ele>1302</ele>
        <time>2020-03-11T12:33:23Z</time>
      </trkpt>
      <trkpt lat="45.97629" lon="6.46045">
        <ele>1302</ele>
        <time>2020-03-11T12:33:28Z</time>
      </trkpt>
      <trkpt lat="45.97629" lon="6.46068">
        <ele>1303</ele>
        <time>2020-03-11T12:33:46Z</time>
      </trkpt>
      <trkpt lat="45.97632" lon="6.46091">
        <ele>1303</ele>
        <time>2020-03-11T12:34:03Z</time>
      </trkpt>
      <trkpt lat="45.97632" lon="6.46098">
        <ele>1304</ele>
        <time>2020-03-11T12:34:08Z</time>
      </trkpt>
      <trkpt lat="45.97631" lon="6.46107">
        <ele>1304</ele>
        <time>2020-03-11T12:34:18Z</time>
      </trkpt>
    </trkseg>
  </trk>
</gpx>